<?xml version="1.0" encoding="UTF-8" standalone="no" ?>
<gpx xmlns="http://www.topografix.com/GPX/1/1" xmlns:xsi="http://www.w3.org/2001/XMLSchema-instance" xsi:schemaLocation="http://www.topografix.com/GPX/1/1 http://www.topografix.com/GPX/1/1/gpx.xsd" version="1.1" creator="VisuGPX - https://www.visugpx.com">
  <metadata>
    <name>samedi 19 04 25</name>
  </metadata>
  <wpt lat="45.41555" lon="0.30443">
    <ele>122.1</ele>
    <name><![CDATA[Ravitaillement]]></name>
  </wpt>
  <wpt lat="45.41556" lon="0.30452">
    <ele>121.6</ele>
    <name><![CDATA[Ravitaillement]]></name>
  </wpt>
  <wpt lat="45.41555" lon="0.30455">
    <ele>121.7</ele>
    <name><![CDATA[Ravitaillement]]></name>
  </wpt>
  <trk>
    <name><![CDATA[samedi 78km]]></name>
    <extensions>
      <line xmlns="http://www.topografix.com/GPX/gpx_style/0/2">
        <color>00FF00</color>
        <width>6</width>
          <extensions>
            <sens>1</sens>
          </extensions>
      </line>
    </extensions>
    <trkseg>
      <trkpt lat="45.24962" lon="0.33704">
        <ele>72</ele>
        <time>2025-04-11T09:00:01Z</time>
      </trkpt>
      <trkpt lat="45.24984" lon="0.337">
        <ele>72</ele>
        <time>2025-04-11T09:00:05Z</time>
      </trkpt>
      <trkpt lat="45.25077" lon="0.33681">
        <ele>70</ele>
        <time>2025-04-11T09:00:22Z</time>
      </trkpt>
      <trkpt lat="45.25073" lon="0.33623">
        <ele>71</ele>
        <time>2025-04-11T09:00:29Z</time>
      </trkpt>
      <trkpt lat="45.25076" lon="0.33593">
        <ele>72</ele>
        <time>2025-04-11T09:00:33Z</time>
      </trkpt>
      <trkpt lat="45.25038" lon="0.33585">
        <ele>74</ele>
        <time>2025-04-11T09:00:40Z</time>
      </trkpt>
      <trkpt lat="45.24945" lon="0.33548">
        <ele>78</ele>
        <time>2025-04-11T09:00:57Z</time>
      </trkpt>
      <trkpt lat="45.24998" lon="0.33407">
        <ele>87</ele>
        <time>2025-04-11T09:01:17Z</time>
      </trkpt>
      <trkpt lat="45.25005" lon="0.33395">
        <ele>88</ele>
        <time>2025-04-11T09:01:19Z</time>
      </trkpt>
      <trkpt lat="45.25018" lon="0.33382">
        <ele>89</ele>
        <time>2025-04-11T09:01:22Z</time>
      </trkpt>
      <trkpt lat="45.25032" lon="0.33373">
        <ele>89</ele>
        <time>2025-04-11T09:01:24Z</time>
      </trkpt>
      <trkpt lat="45.25103" lon="0.33344">
        <ele>92</ele>
        <time>2025-04-11T09:01:37Z</time>
      </trkpt>
      <trkpt lat="45.25152" lon="0.33321">
        <ele>93</ele>
        <time>2025-04-11T09:01:47Z</time>
      </trkpt>
      <trkpt lat="45.25172" lon="0.33305">
        <ele>95</ele>
        <time>2025-04-11T09:01:51Z</time>
      </trkpt>
      <trkpt lat="45.25187" lon="0.33291">
        <ele>95</ele>
        <time>2025-04-11T09:01:54Z</time>
      </trkpt>
      <trkpt lat="45.25198" lon="0.33274">
        <ele>96</ele>
        <time>2025-04-11T09:01:57Z</time>
      </trkpt>
      <trkpt lat="45.25205" lon="0.33258">
        <ele>97</ele>
        <time>2025-04-11T09:01:59Z</time>
      </trkpt>
      <trkpt lat="45.25212" lon="0.33236">
        <ele>98</ele>
        <time>2025-04-11T09:02:02Z</time>
      </trkpt>
      <trkpt lat="45.25221" lon="0.33184">
        <ele>99</ele>
        <time>2025-04-11T09:02:09Z</time>
      </trkpt>
      <trkpt lat="45.25224" lon="0.33149">
        <ele>100</ele>
        <time>2025-04-11T09:02:13Z</time>
      </trkpt>
      <trkpt lat="45.25222" lon="0.33088">
        <ele>100</ele>
        <time>2025-04-11T09:02:21Z</time>
      </trkpt>
      <trkpt lat="45.25217" lon="0.33051">
        <ele>100</ele>
        <time>2025-04-11T09:02:26Z</time>
      </trkpt>
      <trkpt lat="45.25208" lon="0.33009">
        <ele>101</ele>
        <time>2025-04-11T09:02:31Z</time>
      </trkpt>
      <trkpt lat="45.25165" lon="0.32854">
        <ele>98</ele>
        <time>2025-04-11T09:02:52Z</time>
      </trkpt>
      <trkpt lat="45.25162" lon="0.32835">
        <ele>97</ele>
        <time>2025-04-11T09:02:54Z</time>
      </trkpt>
      <trkpt lat="45.2516" lon="0.32797">
        <ele>98</ele>
        <time>2025-04-11T09:02:59Z</time>
      </trkpt>
      <trkpt lat="45.25162" lon="0.32774">
        <ele>98</ele>
        <time>2025-04-11T09:03:02Z</time>
      </trkpt>
      <trkpt lat="45.25183" lon="0.32656">
        <ele>97</ele>
        <time>2025-04-11T09:03:17Z</time>
      </trkpt>
      <trkpt lat="45.25187" lon="0.32613">
        <ele>93</ele>
        <time>2025-04-11T09:03:23Z</time>
      </trkpt>
      <trkpt lat="45.25182" lon="0.32575">
        <ele>91</ele>
        <time>2025-04-11T09:03:28Z</time>
      </trkpt>
      <trkpt lat="45.25177" lon="0.32559">
        <ele>90</ele>
        <time>2025-04-11T09:03:30Z</time>
      </trkpt>
      <trkpt lat="45.25171" lon="0.32545">
        <ele>90</ele>
        <time>2025-04-11T09:03:32Z</time>
      </trkpt>
      <trkpt lat="45.2516" lon="0.32531">
        <ele>89</ele>
        <time>2025-04-11T09:03:35Z</time>
      </trkpt>
      <trkpt lat="45.25098" lon="0.32469">
        <ele>88</ele>
        <time>2025-04-11T09:03:48Z</time>
      </trkpt>
      <trkpt lat="45.25089" lon="0.32455">
        <ele>88</ele>
        <time>2025-04-11T09:03:50Z</time>
      </trkpt>
      <trkpt lat="45.25084" lon="0.32438">
        <ele>87</ele>
        <time>2025-04-11T09:03:53Z</time>
      </trkpt>
      <trkpt lat="45.25083" lon="0.32424">
        <ele>87</ele>
        <time>2025-04-11T09:03:55Z</time>
      </trkpt>
      <trkpt lat="45.25084" lon="0.3241">
        <ele>87</ele>
        <time>2025-04-11T09:03:56Z</time>
      </trkpt>
      <trkpt lat="45.25089" lon="0.32395">
        <ele>88</ele>
        <time>2025-04-11T09:03:58Z</time>
      </trkpt>
      <trkpt lat="45.25099" lon="0.32381">
        <ele>89</ele>
        <time>2025-04-11T09:04:01Z</time>
      </trkpt>
      <trkpt lat="45.25113" lon="0.32369">
        <ele>89</ele>
        <time>2025-04-11T09:04:04Z</time>
      </trkpt>
      <trkpt lat="45.25153" lon="0.32324">
        <ele>90</ele>
        <time>2025-04-11T09:04:13Z</time>
      </trkpt>
      <trkpt lat="45.25162" lon="0.3231">
        <ele>91</ele>
        <time>2025-04-11T09:04:15Z</time>
      </trkpt>
      <trkpt lat="45.25174" lon="0.32284">
        <ele>92</ele>
        <time>2025-04-11T09:04:19Z</time>
      </trkpt>
      <trkpt lat="45.25186" lon="0.32223">
        <ele>94</ele>
        <time>2025-04-11T09:04:27Z</time>
      </trkpt>
      <trkpt lat="45.25193" lon="0.32197">
        <ele>94</ele>
        <time>2025-04-11T09:04:31Z</time>
      </trkpt>
      <trkpt lat="45.252" lon="0.3218">
        <ele>94</ele>
        <time>2025-04-11T09:04:33Z</time>
      </trkpt>
      <trkpt lat="45.25244" lon="0.32111">
        <ele>92</ele>
        <time>2025-04-11T09:04:45Z</time>
      </trkpt>
      <trkpt lat="45.25249" lon="0.32098">
        <ele>92</ele>
        <time>2025-04-11T09:04:47Z</time>
      </trkpt>
      <trkpt lat="45.25251" lon="0.32083">
        <ele>92</ele>
        <time>2025-04-11T09:04:48Z</time>
      </trkpt>
      <trkpt lat="45.25253" lon="0.32013">
        <ele>88</ele>
        <time>2025-04-11T09:04:57Z</time>
      </trkpt>
      <trkpt lat="45.25256" lon="0.3196">
        <ele>85</ele>
        <time>2025-04-11T09:05:04Z</time>
      </trkpt>
      <trkpt lat="45.25261" lon="0.31939">
        <ele>83</ele>
        <time>2025-04-11T09:05:07Z</time>
      </trkpt>
      <trkpt lat="45.25298" lon="0.31842">
        <ele>80</ele>
        <time>2025-04-11T09:05:20Z</time>
      </trkpt>
      <trkpt lat="45.25302" lon="0.31824">
        <ele>80</ele>
        <time>2025-04-11T09:05:23Z</time>
      </trkpt>
      <trkpt lat="45.25305" lon="0.318">
        <ele>78</ele>
        <time>2025-04-11T09:05:26Z</time>
      </trkpt>
      <trkpt lat="45.25307" lon="0.31779">
        <ele>77</ele>
        <time>2025-04-11T09:05:29Z</time>
      </trkpt>
      <trkpt lat="45.25305" lon="0.31744">
        <ele>76</ele>
        <time>2025-04-11T09:05:33Z</time>
      </trkpt>
      <trkpt lat="45.25297" lon="0.31669">
        <ele>75</ele>
        <time>2025-04-11T09:05:42Z</time>
      </trkpt>
      <trkpt lat="45.25294" lon="0.31621">
        <ele>70</ele>
        <time>2025-04-11T09:05:48Z</time>
      </trkpt>
      <trkpt lat="45.25297" lon="0.31524">
        <ele>65</ele>
        <time>2025-04-11T09:06:01Z</time>
      </trkpt>
      <trkpt lat="45.25296" lon="0.31469">
        <ele>64</ele>
        <time>2025-04-11T09:06:08Z</time>
      </trkpt>
      <trkpt lat="45.25281" lon="0.31292">
        <ele>68</ele>
        <time>2025-04-11T09:06:30Z</time>
      </trkpt>
      <trkpt lat="45.25282" lon="0.31265">
        <ele>70</ele>
        <time>2025-04-11T09:06:33Z</time>
      </trkpt>
      <trkpt lat="45.25289" lon="0.31231">
        <ele>71</ele>
        <time>2025-04-11T09:06:38Z</time>
      </trkpt>
      <trkpt lat="45.253" lon="0.31204">
        <ele>73</ele>
        <time>2025-04-11T09:06:42Z</time>
      </trkpt>
      <trkpt lat="45.25338" lon="0.31129">
        <ele>74</ele>
        <time>2025-04-11T09:06:53Z</time>
      </trkpt>
      <trkpt lat="45.25652" lon="0.30573">
        <ele>67</ele>
        <time>2025-04-11T09:08:22Z</time>
      </trkpt>
      <trkpt lat="45.25676" lon="0.30526">
        <ele>68</ele>
        <time>2025-04-11T09:08:30Z</time>
      </trkpt>
      <trkpt lat="45.25792" lon="0.30277">
        <ele>67</ele>
        <time>2025-04-11T09:09:07Z</time>
      </trkpt>
      <trkpt lat="45.25805" lon="0.30244">
        <ele>67</ele>
        <time>2025-04-11T09:09:12Z</time>
      </trkpt>
      <trkpt lat="45.25834" lon="0.30158">
        <ele>66</ele>
        <time>2025-04-11T09:09:24Z</time>
      </trkpt>
      <trkpt lat="45.25862" lon="0.30093">
        <ele>67</ele>
        <time>2025-04-11T09:09:33Z</time>
      </trkpt>
      <trkpt lat="45.25875" lon="0.30058">
        <ele>67</ele>
        <time>2025-04-11T09:09:38Z</time>
      </trkpt>
      <trkpt lat="45.25885" lon="0.3002">
        <ele>67</ele>
        <time>2025-04-11T09:09:43Z</time>
      </trkpt>
      <trkpt lat="45.25938" lon="0.29746">
        <ele>66</ele>
        <time>2025-04-11T09:10:19Z</time>
      </trkpt>
      <trkpt lat="45.25942" lon="0.29721">
        <ele>66</ele>
        <time>2025-04-11T09:10:22Z</time>
      </trkpt>
      <trkpt lat="45.25949" lon="0.29633">
        <ele>69</ele>
        <time>2025-04-11T09:10:33Z</time>
      </trkpt>
      <trkpt lat="45.25958" lon="0.29581">
        <ele>72</ele>
        <time>2025-04-11T09:10:40Z</time>
      </trkpt>
      <trkpt lat="45.26082" lon="0.2914">
        <ele>74</ele>
        <time>2025-04-11T09:11:39Z</time>
      </trkpt>
      <trkpt lat="45.26096" lon="0.29106">
        <ele>72</ele>
        <time>2025-04-11T09:11:44Z</time>
      </trkpt>
      <trkpt lat="45.26128" lon="0.29038">
        <ele>68</ele>
        <time>2025-04-11T09:11:55Z</time>
      </trkpt>
      <trkpt lat="45.26132" lon="0.29021">
        <ele>67</ele>
        <time>2025-04-11T09:11:57Z</time>
      </trkpt>
      <trkpt lat="45.26135" lon="0.28991">
        <ele>66</ele>
        <time>2025-04-11T09:12:01Z</time>
      </trkpt>
      <trkpt lat="45.26131" lon="0.28959">
        <ele>66</ele>
        <time>2025-04-11T09:12:05Z</time>
      </trkpt>
      <trkpt lat="45.26089" lon="0.28772">
        <ele>67</ele>
        <time>2025-04-11T09:12:29Z</time>
      </trkpt>
      <trkpt lat="45.26077" lon="0.28705">
        <ele>66</ele>
        <time>2025-04-11T09:12:38Z</time>
      </trkpt>
      <trkpt lat="45.26039" lon="0.28479">
        <ele>64</ele>
        <time>2025-04-11T09:13:07Z</time>
      </trkpt>
      <trkpt lat="45.26037" lon="0.28455">
        <ele>64</ele>
        <time>2025-04-11T09:13:10Z</time>
      </trkpt>
      <trkpt lat="45.26038" lon="0.28435">
        <ele>63</ele>
        <time>2025-04-11T09:13:13Z</time>
      </trkpt>
      <trkpt lat="45.26041" lon="0.28418">
        <ele>63</ele>
        <time>2025-04-11T09:13:15Z</time>
      </trkpt>
      <trkpt lat="45.26052" lon="0.28386">
        <ele>63</ele>
        <time>2025-04-11T09:13:19Z</time>
      </trkpt>
      <trkpt lat="45.26177" lon="0.28164">
        <ele>60</ele>
        <time>2025-04-11T09:13:55Z</time>
      </trkpt>
      <trkpt lat="45.26191" lon="0.28134">
        <ele>60</ele>
        <time>2025-04-11T09:13:59Z</time>
      </trkpt>
      <trkpt lat="45.26317" lon="0.27798">
        <ele>64</ele>
        <time>2025-04-11T09:14:47Z</time>
      </trkpt>
      <trkpt lat="45.26344" lon="0.27732">
        <ele>62</ele>
        <time>2025-04-11T09:14:57Z</time>
      </trkpt>
      <trkpt lat="45.26357" lon="0.27709">
        <ele>63</ele>
        <time>2025-04-11T09:15:00Z</time>
      </trkpt>
      <trkpt lat="45.26437" lon="0.27586">
        <ele>66</ele>
        <time>2025-04-11T09:15:21Z</time>
      </trkpt>
      <trkpt lat="45.26449" lon="0.27562">
        <ele>66</ele>
        <time>2025-04-11T09:15:25Z</time>
      </trkpt>
      <trkpt lat="45.26465" lon="0.27521">
        <ele>68</ele>
        <time>2025-04-11T09:15:31Z</time>
      </trkpt>
      <trkpt lat="45.26542" lon="0.27204">
        <ele>70</ele>
        <time>2025-04-11T09:16:13Z</time>
      </trkpt>
      <trkpt lat="45.26553" lon="0.27169">
        <ele>71</ele>
        <time>2025-04-11T09:16:18Z</time>
      </trkpt>
      <trkpt lat="45.26571" lon="0.27118">
        <ele>71</ele>
        <time>2025-04-11T09:16:25Z</time>
      </trkpt>
      <trkpt lat="45.26591" lon="0.27074">
        <ele>72</ele>
        <time>2025-04-11T09:16:31Z</time>
      </trkpt>
      <trkpt lat="45.26781" lon="0.26754">
        <ele>76</ele>
        <time>2025-04-11T09:17:24Z</time>
      </trkpt>
      <trkpt lat="45.26806" lon="0.26699">
        <ele>76</ele>
        <time>2025-04-11T09:17:32Z</time>
      </trkpt>
      <trkpt lat="45.26849" lon="0.26563">
        <ele>75</ele>
        <time>2025-04-11T09:17:51Z</time>
      </trkpt>
      <trkpt lat="45.2686" lon="0.26518">
        <ele>74</ele>
        <time>2025-04-11T09:17:57Z</time>
      </trkpt>
      <trkpt lat="45.26881" lon="0.26414">
        <ele>72</ele>
        <time>2025-04-11T09:18:10Z</time>
      </trkpt>
      <trkpt lat="45.26889" lon="0.26388">
        <ele>72</ele>
        <time>2025-04-11T09:18:14Z</time>
      </trkpt>
      <trkpt lat="45.26924" lon="0.26296">
        <ele>75</ele>
        <time>2025-04-11T09:18:27Z</time>
      </trkpt>
      <trkpt lat="45.26942" lon="0.26237">
        <ele>77</ele>
        <time>2025-04-11T09:18:35Z</time>
      </trkpt>
      <trkpt lat="45.26947" lon="0.26213">
        <ele>76</ele>
        <time>2025-04-11T09:18:38Z</time>
      </trkpt>
      <trkpt lat="45.2695" lon="0.26188">
        <ele>75</ele>
        <time>2025-04-11T09:18:41Z</time>
      </trkpt>
      <trkpt lat="45.26952" lon="0.26079">
        <ele>75</ele>
        <time>2025-04-11T09:18:55Z</time>
      </trkpt>
      <trkpt lat="45.2696" lon="0.26032">
        <ele>77</ele>
        <time>2025-04-11T09:19:01Z</time>
      </trkpt>
      <trkpt lat="45.26967" lon="0.26005">
        <ele>77</ele>
        <time>2025-04-11T09:19:04Z</time>
      </trkpt>
      <trkpt lat="45.26976" lon="0.25981">
        <ele>78</ele>
        <time>2025-04-11T09:19:08Z</time>
      </trkpt>
      <trkpt lat="45.26987" lon="0.25958">
        <ele>79</ele>
        <time>2025-04-11T09:19:11Z</time>
      </trkpt>
      <trkpt lat="45.27086" lon="0.25825">
        <ele>80</ele>
        <time>2025-04-11T09:19:36Z</time>
      </trkpt>
      <trkpt lat="45.27101" lon="0.25798">
        <ele>80</ele>
        <time>2025-04-11T09:19:40Z</time>
      </trkpt>
      <trkpt lat="45.27105" lon="0.25788">
        <ele>80</ele>
        <time>2025-04-11T09:19:41Z</time>
      </trkpt>
      <trkpt lat="45.27107" lon="0.25775">
        <ele>80</ele>
        <time>2025-04-11T09:19:43Z</time>
      </trkpt>
      <trkpt lat="45.27112" lon="0.25724">
        <ele>80</ele>
        <time>2025-04-11T09:19:49Z</time>
      </trkpt>
      <trkpt lat="45.27117" lon="0.25707">
        <ele>80</ele>
        <time>2025-04-11T09:19:52Z</time>
      </trkpt>
      <trkpt lat="45.27136" lon="0.25664">
        <ele>80</ele>
        <time>2025-04-11T09:19:58Z</time>
      </trkpt>
      <trkpt lat="45.27073" lon="0.25586">
        <ele>80</ele>
        <time>2025-04-11T09:20:13Z</time>
      </trkpt>
      <trkpt lat="45.27034" lon="0.25535">
        <ele>80</ele>
        <time>2025-04-11T09:20:22Z</time>
      </trkpt>
      <trkpt lat="45.27024" lon="0.25527">
        <ele>81</ele>
        <time>2025-04-11T09:20:24Z</time>
      </trkpt>
      <trkpt lat="45.27014" lon="0.25523">
        <ele>81</ele>
        <time>2025-04-11T09:20:26Z</time>
      </trkpt>
      <trkpt lat="45.26892" lon="0.25539">
        <ele>81</ele>
        <time>2025-04-11T09:20:48Z</time>
      </trkpt>
      <trkpt lat="45.26863" lon="0.25549">
        <ele>81</ele>
        <time>2025-04-11T09:20:53Z</time>
      </trkpt>
      <trkpt lat="45.26573" lon="0.25724">
        <ele>92</ele>
        <time>2025-04-11T09:21:49Z</time>
      </trkpt>
      <trkpt lat="45.2644" lon="0.25809">
        <ele>90</ele>
        <time>2025-04-11T09:22:15Z</time>
      </trkpt>
      <trkpt lat="45.26419" lon="0.25812">
        <ele>90</ele>
        <time>2025-04-11T09:22:19Z</time>
      </trkpt>
      <trkpt lat="45.26401" lon="0.25811">
        <ele>90</ele>
        <time>2025-04-11T09:22:22Z</time>
      </trkpt>
      <trkpt lat="45.26386" lon="0.25807">
        <ele>90</ele>
        <time>2025-04-11T09:22:25Z</time>
      </trkpt>
      <trkpt lat="45.26361" lon="0.25787">
        <ele>90</ele>
        <time>2025-04-11T09:22:30Z</time>
      </trkpt>
      <trkpt lat="45.26302" lon="0.25721">
        <ele>84</ele>
        <time>2025-04-11T09:22:44Z</time>
      </trkpt>
      <trkpt lat="45.2629" lon="0.257">
        <ele>83</ele>
        <time>2025-04-11T09:22:47Z</time>
      </trkpt>
      <trkpt lat="45.2623" lon="0.25582">
        <ele>77</ele>
        <time>2025-04-11T09:23:05Z</time>
      </trkpt>
      <trkpt lat="45.26218" lon="0.2552">
        <ele>75</ele>
        <time>2025-04-11T09:23:13Z</time>
      </trkpt>
      <trkpt lat="45.26206" lon="0.25491">
        <ele>74</ele>
        <time>2025-04-11T09:23:17Z</time>
      </trkpt>
      <trkpt lat="45.26187" lon="0.25464">
        <ele>74</ele>
        <time>2025-04-11T09:23:22Z</time>
      </trkpt>
      <trkpt lat="45.26186" lon="0.25463">
        <ele>74</ele>
        <time>2025-04-11T09:23:22Z</time>
      </trkpt>
      <trkpt lat="45.26152" lon="0.25429">
        <ele>75</ele>
        <time>2025-04-11T09:23:30Z</time>
      </trkpt>
      <trkpt lat="45.26076" lon="0.2535">
        <ele>77</ele>
        <time>2025-04-11T09:23:47Z</time>
      </trkpt>
      <trkpt lat="45.2606" lon="0.25342">
        <ele>78</ele>
        <time>2025-04-11T09:23:50Z</time>
      </trkpt>
      <trkpt lat="45.25976" lon="0.25339">
        <ele>83</ele>
        <time>2025-04-11T09:24:05Z</time>
      </trkpt>
      <trkpt lat="45.25962" lon="0.25331">
        <ele>84</ele>
        <time>2025-04-11T09:24:07Z</time>
      </trkpt>
      <trkpt lat="45.25899" lon="0.25279">
        <ele>84</ele>
        <time>2025-04-11T09:24:20Z</time>
      </trkpt>
      <trkpt lat="45.25872" lon="0.25268">
        <ele>85</ele>
        <time>2025-04-11T09:24:25Z</time>
      </trkpt>
      <trkpt lat="45.25849" lon="0.25262">
        <ele>87</ele>
        <time>2025-04-11T09:24:29Z</time>
      </trkpt>
      <trkpt lat="45.25762" lon="0.25278">
        <ele>89</ele>
        <time>2025-04-11T09:24:45Z</time>
      </trkpt>
      <trkpt lat="45.25669" lon="0.25284">
        <ele>88</ele>
        <time>2025-04-11T09:25:02Z</time>
      </trkpt>
      <trkpt lat="45.25653" lon="0.25284">
        <ele>88</ele>
        <time>2025-04-11T09:25:04Z</time>
      </trkpt>
      <trkpt lat="45.25604" lon="0.25276">
        <ele>89</ele>
        <time>2025-04-11T09:25:13Z</time>
      </trkpt>
      <trkpt lat="45.25589" lon="0.2527">
        <ele>89</ele>
        <time>2025-04-11T09:25:16Z</time>
      </trkpt>
      <trkpt lat="45.25569" lon="0.25259">
        <ele>89</ele>
        <time>2025-04-11T09:25:20Z</time>
      </trkpt>
      <trkpt lat="45.25502" lon="0.25209">
        <ele>89</ele>
        <time>2025-04-11T09:25:33Z</time>
      </trkpt>
      <trkpt lat="45.25491" lon="0.25204">
        <ele>89</ele>
        <time>2025-04-11T09:25:35Z</time>
      </trkpt>
      <trkpt lat="45.25469" lon="0.25201">
        <ele>88</ele>
        <time>2025-04-11T09:25:39Z</time>
      </trkpt>
      <trkpt lat="45.25338" lon="0.25211">
        <ele>87</ele>
        <time>2025-04-11T09:26:03Z</time>
      </trkpt>
      <trkpt lat="45.25325" lon="0.25219">
        <ele>88</ele>
        <time>2025-04-11T09:26:05Z</time>
      </trkpt>
      <trkpt lat="45.25304" lon="0.25253">
        <ele>89</ele>
        <time>2025-04-11T09:26:11Z</time>
      </trkpt>
      <trkpt lat="45.25299" lon="0.25257">
        <ele>89</ele>
        <time>2025-04-11T09:26:12Z</time>
      </trkpt>
      <trkpt lat="45.25292" lon="0.2526">
        <ele>90</ele>
        <time>2025-04-11T09:26:13Z</time>
      </trkpt>
      <trkpt lat="45.25255" lon="0.25264">
        <ele>91</ele>
        <time>2025-04-11T09:26:20Z</time>
      </trkpt>
      <trkpt lat="45.25228" lon="0.25255">
        <ele>92</ele>
        <time>2025-04-11T09:26:25Z</time>
      </trkpt>
      <trkpt lat="45.25214" lon="0.25255">
        <ele>92</ele>
        <time>2025-04-11T09:26:27Z</time>
      </trkpt>
      <trkpt lat="45.25067" lon="0.25288">
        <ele>95</ele>
        <time>2025-04-11T09:26:54Z</time>
      </trkpt>
      <trkpt lat="45.25043" lon="0.2529">
        <ele>95</ele>
        <time>2025-04-11T09:26:58Z</time>
      </trkpt>
      <trkpt lat="45.25023" lon="0.25288">
        <ele>96</ele>
        <time>2025-04-11T09:27:01Z</time>
      </trkpt>
      <trkpt lat="45.24995" lon="0.25281">
        <ele>96</ele>
        <time>2025-04-11T09:27:06Z</time>
      </trkpt>
      <trkpt lat="45.24622" lon="0.25158">
        <ele>100</ele>
        <time>2025-04-11T09:28:15Z</time>
      </trkpt>
      <trkpt lat="45.24588" lon="0.25143">
        <ele>100</ele>
        <time>2025-04-11T09:28:21Z</time>
      </trkpt>
      <trkpt lat="45.24571" lon="0.25128">
        <ele>100</ele>
        <time>2025-04-11T09:28:25Z</time>
      </trkpt>
      <trkpt lat="45.24417" lon="0.24928">
        <ele>104</ele>
        <time>2025-04-11T09:29:02Z</time>
      </trkpt>
      <trkpt lat="45.24402" lon="0.24905">
        <ele>104</ele>
        <time>2025-04-11T09:29:06Z</time>
      </trkpt>
      <trkpt lat="45.24385" lon="0.24873">
        <ele>104</ele>
        <time>2025-04-11T09:29:11Z</time>
      </trkpt>
      <trkpt lat="45.24194" lon="0.24341">
        <ele>95</ele>
        <time>2025-04-11T09:30:25Z</time>
      </trkpt>
      <trkpt lat="45.24183" lon="0.24335">
        <ele>95</ele>
        <time>2025-04-11T09:30:28Z</time>
      </trkpt>
      <trkpt lat="45.24163" lon="0.24328">
        <ele>95</ele>
        <time>2025-04-11T09:30:31Z</time>
      </trkpt>
      <trkpt lat="45.23985" lon="0.24346">
        <ele>98</ele>
        <time>2025-04-11T09:31:03Z</time>
      </trkpt>
      <trkpt lat="45.23981" lon="0.24143">
        <ele>93</ele>
        <time>2025-04-11T09:31:28Z</time>
      </trkpt>
      <trkpt lat="45.23975" lon="0.23773">
        <ele>83</ele>
        <time>2025-04-11T09:32:15Z</time>
      </trkpt>
      <trkpt lat="45.23976" lon="0.23747">
        <ele>83</ele>
        <time>2025-04-11T09:32:18Z</time>
      </trkpt>
      <trkpt lat="45.23981" lon="0.23718">
        <ele>83</ele>
        <time>2025-04-11T09:32:22Z</time>
      </trkpt>
      <trkpt lat="45.2403" lon="0.23533">
        <ele>83</ele>
        <time>2025-04-11T09:32:46Z</time>
      </trkpt>
      <trkpt lat="45.24036" lon="0.23493">
        <ele>83</ele>
        <time>2025-04-11T09:32:52Z</time>
      </trkpt>
      <trkpt lat="45.24035" lon="0.2336">
        <ele>80</ele>
        <time>2025-04-11T09:33:08Z</time>
      </trkpt>
      <trkpt lat="45.24038" lon="0.23323">
        <ele>79</ele>
        <time>2025-04-11T09:33:13Z</time>
      </trkpt>
      <trkpt lat="45.24047" lon="0.23255">
        <ele>76</ele>
        <time>2025-04-11T09:33:22Z</time>
      </trkpt>
      <trkpt lat="45.24101" lon="0.22939">
        <ele>74</ele>
        <time>2025-04-11T09:34:02Z</time>
      </trkpt>
      <trkpt lat="45.24104" lon="0.22898">
        <ele>75</ele>
        <time>2025-04-11T09:34:08Z</time>
      </trkpt>
      <trkpt lat="45.2411" lon="0.22767">
        <ele>74</ele>
        <time>2025-04-11T09:34:24Z</time>
      </trkpt>
      <trkpt lat="45.24112" lon="0.22731">
        <ele>73</ele>
        <time>2025-04-11T09:34:28Z</time>
      </trkpt>
      <trkpt lat="45.24118" lon="0.22701">
        <ele>73</ele>
        <time>2025-04-11T09:34:32Z</time>
      </trkpt>
      <trkpt lat="45.24126" lon="0.22678">
        <ele>72</ele>
        <time>2025-04-11T09:34:36Z</time>
      </trkpt>
      <trkpt lat="45.24136" lon="0.22658">
        <ele>72</ele>
        <time>2025-04-11T09:34:39Z</time>
      </trkpt>
      <trkpt lat="45.2415" lon="0.22637">
        <ele>71</ele>
        <time>2025-04-11T09:34:42Z</time>
      </trkpt>
      <trkpt lat="45.24271" lon="0.22471">
        <ele>69</ele>
        <time>2025-04-11T09:35:12Z</time>
      </trkpt>
      <trkpt lat="45.24307" lon="0.2242">
        <ele>68</ele>
        <time>2025-04-11T09:35:21Z</time>
      </trkpt>
      <trkpt lat="45.24339" lon="0.2237">
        <ele>68</ele>
        <time>2025-04-11T09:35:30Z</time>
      </trkpt>
      <trkpt lat="45.24603" lon="0.21928">
        <ele>65</ele>
        <time>2025-04-11T09:36:42Z</time>
      </trkpt>
      <trkpt lat="45.24618" lon="0.21907">
        <ele>65</ele>
        <time>2025-04-11T09:36:46Z</time>
      </trkpt>
      <trkpt lat="45.24632" lon="0.2189">
        <ele>65</ele>
        <time>2025-04-11T09:36:49Z</time>
      </trkpt>
      <trkpt lat="45.24666" lon="0.21859">
        <ele>65</ele>
        <time>2025-04-11T09:36:57Z</time>
      </trkpt>
      <trkpt lat="45.24878" lon="0.21685">
        <ele>63</ele>
        <time>2025-04-11T09:37:40Z</time>
      </trkpt>
      <trkpt lat="45.24906" lon="0.2165">
        <ele>63</ele>
        <time>2025-04-11T09:37:47Z</time>
      </trkpt>
      <trkpt lat="45.24919" lon="0.21626">
        <ele>63</ele>
        <time>2025-04-11T09:37:51Z</time>
      </trkpt>
      <trkpt lat="45.24936" lon="0.21585">
        <ele>63</ele>
        <time>2025-04-11T09:37:57Z</time>
      </trkpt>
      <trkpt lat="45.24952" lon="0.21538">
        <ele>63</ele>
        <time>2025-04-11T09:38:03Z</time>
      </trkpt>
      <trkpt lat="45.24999" lon="0.21387">
        <ele>62</ele>
        <time>2025-04-11T09:38:24Z</time>
      </trkpt>
      <trkpt lat="45.25012" lon="0.21356">
        <ele>62</ele>
        <time>2025-04-11T09:38:28Z</time>
      </trkpt>
      <trkpt lat="45.25025" lon="0.21332">
        <ele>62</ele>
        <time>2025-04-11T09:38:32Z</time>
      </trkpt>
      <trkpt lat="45.25302" lon="0.20859">
        <ele>76</ele>
        <time>2025-04-11T09:39:49Z</time>
      </trkpt>
      <trkpt lat="45.25328" lon="0.20807">
        <ele>78</ele>
        <time>2025-04-11T09:39:57Z</time>
      </trkpt>
      <trkpt lat="45.25336" lon="0.20785">
        <ele>78</ele>
        <time>2025-04-11T09:40:00Z</time>
      </trkpt>
      <trkpt lat="45.25339" lon="0.20765">
        <ele>77</ele>
        <time>2025-04-11T09:40:03Z</time>
      </trkpt>
      <trkpt lat="45.25341" lon="0.20745">
        <ele>77</ele>
        <time>2025-04-11T09:40:05Z</time>
      </trkpt>
      <trkpt lat="45.25341" lon="0.20712">
        <ele>77</ele>
        <time>2025-04-11T09:40:09Z</time>
      </trkpt>
      <trkpt lat="45.25318" lon="0.20379">
        <ele>70</ele>
        <time>2025-04-11T09:40:51Z</time>
      </trkpt>
      <trkpt lat="45.25317" lon="0.20315">
        <ele>71</ele>
        <time>2025-04-11T09:40:59Z</time>
      </trkpt>
      <trkpt lat="45.25321" lon="0.20283">
        <ele>71</ele>
        <time>2025-04-11T09:41:03Z</time>
      </trkpt>
      <trkpt lat="45.25328" lon="0.20251">
        <ele>71</ele>
        <time>2025-04-11T09:41:08Z</time>
      </trkpt>
      <trkpt lat="45.25344" lon="0.20205">
        <ele>71</ele>
        <time>2025-04-11T09:41:14Z</time>
      </trkpt>
      <trkpt lat="45.25366" lon="0.20157">
        <ele>71</ele>
        <time>2025-04-11T09:41:21Z</time>
      </trkpt>
      <trkpt lat="45.2538" lon="0.20137">
        <ele>71</ele>
        <time>2025-04-11T09:41:25Z</time>
      </trkpt>
      <trkpt lat="45.25396" lon="0.20117">
        <ele>71</ele>
        <time>2025-04-11T09:41:29Z</time>
      </trkpt>
      <trkpt lat="45.2547" lon="0.20042">
        <ele>70</ele>
        <time>2025-04-11T09:41:45Z</time>
      </trkpt>
      <trkpt lat="45.2548" lon="0.20022">
        <ele>70</ele>
        <time>2025-04-11T09:41:48Z</time>
      </trkpt>
      <trkpt lat="45.25503" lon="0.20005">
        <ele>70</ele>
        <time>2025-04-11T09:41:52Z</time>
      </trkpt>
      <trkpt lat="45.25552" lon="0.19961">
        <ele>69</ele>
        <time>2025-04-11T09:42:03Z</time>
      </trkpt>
      <trkpt lat="45.25688" lon="0.1982">
        <ele>65</ele>
        <time>2025-04-11T09:42:33Z</time>
      </trkpt>
      <trkpt lat="45.25785" lon="0.19702">
        <ele>55</ele>
        <time>2025-04-11T09:42:55Z</time>
      </trkpt>
      <trkpt lat="45.25851" lon="0.19593">
        <ele>51</ele>
        <time>2025-04-11T09:43:13Z</time>
      </trkpt>
      <trkpt lat="45.25943" lon="0.19457">
        <ele>49</ele>
        <time>2025-04-11T09:43:37Z</time>
      </trkpt>
      <trkpt lat="45.2602" lon="0.19349">
        <ele>49</ele>
        <time>2025-04-11T09:43:56Z</time>
      </trkpt>
      <trkpt lat="45.26035" lon="0.19333">
        <ele>49</ele>
        <time>2025-04-11T09:44:00Z</time>
      </trkpt>
      <trkpt lat="45.26046" lon="0.19319">
        <ele>49</ele>
        <time>2025-04-11T09:44:02Z</time>
      </trkpt>
      <trkpt lat="45.26113" lon="0.19207">
        <ele>48</ele>
        <time>2025-04-11T09:44:21Z</time>
      </trkpt>
      <trkpt lat="45.26125" lon="0.1918">
        <ele>48</ele>
        <time>2025-04-11T09:44:25Z</time>
      </trkpt>
      <trkpt lat="45.26188" lon="0.18993">
        <ele>48</ele>
        <time>2025-04-11T09:44:51Z</time>
      </trkpt>
      <trkpt lat="45.26201" lon="0.18967">
        <ele>48</ele>
        <time>2025-04-11T09:44:55Z</time>
      </trkpt>
      <trkpt lat="45.26229" lon="0.18915">
        <ele>47</ele>
        <time>2025-04-11T09:45:03Z</time>
      </trkpt>
      <trkpt lat="45.26292" lon="0.18816">
        <ele>44</ele>
        <time>2025-04-11T09:45:20Z</time>
      </trkpt>
      <trkpt lat="45.26402" lon="0.18659">
        <ele>45</ele>
        <time>2025-04-11T09:45:47Z</time>
      </trkpt>
      <trkpt lat="45.26801" lon="0.18161">
        <ele>45</ele>
        <time>2025-04-11T09:47:22Z</time>
      </trkpt>
      <trkpt lat="45.26829" lon="0.18115">
        <ele>45</ele>
        <time>2025-04-11T09:47:29Z</time>
      </trkpt>
      <trkpt lat="45.26841" lon="0.18085">
        <ele>45</ele>
        <time>2025-04-11T09:47:34Z</time>
      </trkpt>
      <trkpt lat="45.26863" lon="0.18005">
        <ele>44</ele>
        <time>2025-04-11T09:47:44Z</time>
      </trkpt>
      <trkpt lat="45.26874" lon="0.17963">
        <ele>44</ele>
        <time>2025-04-11T09:47:50Z</time>
      </trkpt>
      <trkpt lat="45.26937" lon="0.17723">
        <ele>44</ele>
        <time>2025-04-11T09:48:22Z</time>
      </trkpt>
      <trkpt lat="45.26941" lon="0.17707">
        <ele>44</ele>
        <time>2025-04-11T09:48:24Z</time>
      </trkpt>
      <trkpt lat="45.2699" lon="0.17519">
        <ele>46</ele>
        <time>2025-04-11T09:48:49Z</time>
      </trkpt>
      <trkpt lat="45.27013" lon="0.17428">
        <ele>47</ele>
        <time>2025-04-11T09:49:02Z</time>
      </trkpt>
      <trkpt lat="45.27048" lon="0.17292">
        <ele>47</ele>
        <time>2025-04-11T09:49:20Z</time>
      </trkpt>
      <trkpt lat="45.27056" lon="0.17254">
        <ele>47</ele>
        <time>2025-04-11T09:49:25Z</time>
      </trkpt>
      <trkpt lat="45.2706" lon="0.17216">
        <ele>48</ele>
        <time>2025-04-11T09:49:29Z</time>
      </trkpt>
      <trkpt lat="45.27062" lon="0.1716">
        <ele>49</ele>
        <time>2025-04-11T09:49:36Z</time>
      </trkpt>
      <trkpt lat="45.27075" lon="0.17157">
        <ele>50</ele>
        <time>2025-04-11T09:49:39Z</time>
      </trkpt>
      <trkpt lat="45.27189" lon="0.17196">
        <ele>54</ele>
        <time>2025-04-11T09:50:00Z</time>
      </trkpt>
      <trkpt lat="45.27389" lon="0.17258">
        <ele>59</ele>
        <time>2025-04-11T09:50:36Z</time>
      </trkpt>
      <trkpt lat="45.27415" lon="0.17274">
        <ele>59</ele>
        <time>2025-04-11T09:50:41Z</time>
      </trkpt>
      <trkpt lat="45.27435" lon="0.17291">
        <ele>58</ele>
        <time>2025-04-11T09:50:45Z</time>
      </trkpt>
      <trkpt lat="45.27462" lon="0.1732">
        <ele>56</ele>
        <time>2025-04-11T09:50:51Z</time>
      </trkpt>
      <trkpt lat="45.2748" lon="0.17342">
        <ele>55</ele>
        <time>2025-04-11T09:50:56Z</time>
      </trkpt>
      <trkpt lat="45.27493" lon="0.17366">
        <ele>54</ele>
        <time>2025-04-11T09:50:59Z</time>
      </trkpt>
      <trkpt lat="45.27529" lon="0.17446">
        <ele>52</ele>
        <time>2025-04-11T09:51:11Z</time>
      </trkpt>
      <trkpt lat="45.27677" lon="0.17814">
        <ele>50</ele>
        <time>2025-04-11T09:52:04Z</time>
      </trkpt>
      <trkpt lat="45.2776" lon="0.18029">
        <ele>48</ele>
        <time>2025-04-11T09:52:35Z</time>
      </trkpt>
      <trkpt lat="45.2777" lon="0.18062">
        <ele>49</ele>
        <time>2025-04-11T09:52:39Z</time>
      </trkpt>
      <trkpt lat="45.27777" lon="0.1809">
        <ele>50</ele>
        <time>2025-04-11T09:52:43Z</time>
      </trkpt>
      <trkpt lat="45.27783" lon="0.18133">
        <ele>52</ele>
        <time>2025-04-11T09:52:49Z</time>
      </trkpt>
      <trkpt lat="45.27783" lon="0.18161">
        <ele>53</ele>
        <time>2025-04-11T09:52:52Z</time>
      </trkpt>
      <trkpt lat="45.27778" lon="0.18205">
        <ele>53</ele>
        <time>2025-04-11T09:52:58Z</time>
      </trkpt>
      <trkpt lat="45.27748" lon="0.18372">
        <ele>50</ele>
        <time>2025-04-11T09:53:19Z</time>
      </trkpt>
      <trkpt lat="45.27736" lon="0.18425">
        <ele>50</ele>
        <time>2025-04-11T09:53:26Z</time>
      </trkpt>
      <trkpt lat="45.27736" lon="0.1847">
        <ele>51</ele>
        <time>2025-04-11T09:53:32Z</time>
      </trkpt>
      <trkpt lat="45.27679" lon="0.18712">
        <ele>48</ele>
        <time>2025-04-11T09:54:04Z</time>
      </trkpt>
      <trkpt lat="45.27673" lon="0.18744">
        <ele>49</ele>
        <time>2025-04-11T09:54:08Z</time>
      </trkpt>
      <trkpt lat="45.27671" lon="0.18762">
        <ele>49</ele>
        <time>2025-04-11T09:54:10Z</time>
      </trkpt>
      <trkpt lat="45.27672" lon="0.1878">
        <ele>49</ele>
        <time>2025-04-11T09:54:13Z</time>
      </trkpt>
      <trkpt lat="45.2768" lon="0.18814">
        <ele>50</ele>
        <time>2025-04-11T09:54:17Z</time>
      </trkpt>
      <trkpt lat="45.27746" lon="0.18989">
        <ele>47</ele>
        <time>2025-04-11T09:54:42Z</time>
      </trkpt>
      <trkpt lat="45.27743" lon="0.18992">
        <ele>47</ele>
        <time>2025-04-11T09:54:43Z</time>
      </trkpt>
      <trkpt lat="45.27737" lon="0.19005">
        <ele>47</ele>
        <time>2025-04-11T09:54:45Z</time>
      </trkpt>
      <trkpt lat="45.27732" lon="0.19026">
        <ele>49</ele>
        <time>2025-04-11T09:54:47Z</time>
      </trkpt>
      <trkpt lat="45.27722" lon="0.1905">
        <ele>50</ele>
        <time>2025-04-11T09:54:51Z</time>
      </trkpt>
      <trkpt lat="45.27692" lon="0.19107">
        <ele>52</ele>
        <time>2025-04-11T09:55:00Z</time>
      </trkpt>
      <trkpt lat="45.2765" lon="0.19154">
        <ele>54</ele>
        <time>2025-04-11T09:55:09Z</time>
      </trkpt>
      <trkpt lat="45.27637" lon="0.19184">
        <ele>56</ele>
        <time>2025-04-11T09:55:14Z</time>
      </trkpt>
      <trkpt lat="45.27633" lon="0.19244">
        <ele>58</ele>
        <time>2025-04-11T09:55:21Z</time>
      </trkpt>
      <trkpt lat="45.27626" lon="0.19266">
        <ele>58</ele>
        <time>2025-04-11T09:55:24Z</time>
      </trkpt>
      <trkpt lat="45.27575" lon="0.1931">
        <ele>56</ele>
        <time>2025-04-11T09:55:35Z</time>
      </trkpt>
      <trkpt lat="45.27555" lon="0.1934">
        <ele>55</ele>
        <time>2025-04-11T09:55:40Z</time>
      </trkpt>
      <trkpt lat="45.27483" lon="0.19432">
        <ele>53</ele>
        <time>2025-04-11T09:55:57Z</time>
      </trkpt>
      <trkpt lat="45.27476" lon="0.1945">
        <ele>53</ele>
        <time>2025-04-11T09:56:00Z</time>
      </trkpt>
      <trkpt lat="45.27472" lon="0.19536">
        <ele>53</ele>
        <time>2025-04-11T09:56:11Z</time>
      </trkpt>
      <trkpt lat="45.27439" lon="0.19656">
        <ele>56</ele>
        <time>2025-04-11T09:56:27Z</time>
      </trkpt>
      <trkpt lat="45.27403" lon="0.19774">
        <ele>54</ele>
        <time>2025-04-11T09:56:43Z</time>
      </trkpt>
      <trkpt lat="45.27379" lon="0.1984">
        <ele>53</ele>
        <time>2025-04-11T09:56:52Z</time>
      </trkpt>
      <trkpt lat="45.27375" lon="0.19871">
        <ele>52</ele>
        <time>2025-04-11T09:56:56Z</time>
      </trkpt>
      <trkpt lat="45.27378" lon="0.19965">
        <ele>53</ele>
        <time>2025-04-11T09:57:08Z</time>
      </trkpt>
      <trkpt lat="45.27373" lon="0.20009">
        <ele>52</ele>
        <time>2025-04-11T09:57:13Z</time>
      </trkpt>
      <trkpt lat="45.27358" lon="0.20076">
        <ele>50</ele>
        <time>2025-04-11T09:57:22Z</time>
      </trkpt>
      <trkpt lat="45.27324" lon="0.202">
        <ele>49</ele>
        <time>2025-04-11T09:57:39Z</time>
      </trkpt>
      <trkpt lat="45.273" lon="0.20273">
        <ele>50</ele>
        <time>2025-04-11T09:57:49Z</time>
      </trkpt>
      <trkpt lat="45.27283" lon="0.20293">
        <ele>50</ele>
        <time>2025-04-11T09:57:53Z</time>
      </trkpt>
      <trkpt lat="45.27236" lon="0.2033">
        <ele>50</ele>
        <time>2025-04-11T09:58:02Z</time>
      </trkpt>
      <trkpt lat="45.27225" lon="0.20343">
        <ele>49</ele>
        <time>2025-04-11T09:58:05Z</time>
      </trkpt>
      <trkpt lat="45.27142" lon="0.20453">
        <ele>48</ele>
        <time>2025-04-11T09:58:25Z</time>
      </trkpt>
      <trkpt lat="45.27111" lon="0.20515">
        <ele>48</ele>
        <time>2025-04-11T09:58:35Z</time>
      </trkpt>
      <trkpt lat="45.27065" lon="0.2057">
        <ele>48</ele>
        <time>2025-04-11T09:58:45Z</time>
      </trkpt>
      <trkpt lat="45.2706" lon="0.20584">
        <ele>49</ele>
        <time>2025-04-11T09:58:47Z</time>
      </trkpt>
      <trkpt lat="45.27106" lon="0.20617">
        <ele>48</ele>
        <time>2025-04-11T09:58:57Z</time>
      </trkpt>
      <trkpt lat="45.27151" lon="0.20651">
        <ele>48</ele>
        <time>2025-04-11T09:59:06Z</time>
      </trkpt>
      <trkpt lat="45.27258" lon="0.20736">
        <ele>48</ele>
        <time>2025-04-11T09:59:27Z</time>
      </trkpt>
      <trkpt lat="45.27293" lon="0.20755">
        <ele>49</ele>
        <time>2025-04-11T09:59:34Z</time>
      </trkpt>
      <trkpt lat="45.27325" lon="0.20764">
        <ele>49</ele>
        <time>2025-04-11T09:59:40Z</time>
      </trkpt>
      <trkpt lat="45.27651" lon="0.20675">
        <ele>52</ele>
        <time>2025-04-11T10:00:39Z</time>
      </trkpt>
      <trkpt lat="45.27745" lon="0.20657">
        <ele>55</ele>
        <time>2025-04-11T10:00:56Z</time>
      </trkpt>
      <trkpt lat="45.27784" lon="0.20665">
        <ele>56</ele>
        <time>2025-04-11T10:01:03Z</time>
      </trkpt>
      <trkpt lat="45.27817" lon="0.20682">
        <ele>56</ele>
        <time>2025-04-11T10:01:09Z</time>
      </trkpt>
      <trkpt lat="45.27847" lon="0.20717">
        <ele>58</ele>
        <time>2025-04-11T10:01:16Z</time>
      </trkpt>
      <trkpt lat="45.27874" lon="0.20761">
        <ele>59</ele>
        <time>2025-04-11T10:01:23Z</time>
      </trkpt>
      <trkpt lat="45.27995" lon="0.20974">
        <ele>56</ele>
        <time>2025-04-11T10:01:58Z</time>
      </trkpt>
      <trkpt lat="45.28019" lon="0.21007">
        <ele>56</ele>
        <time>2025-04-11T10:02:04Z</time>
      </trkpt>
      <trkpt lat="45.28035" lon="0.21017">
        <ele>56</ele>
        <time>2025-04-11T10:02:07Z</time>
      </trkpt>
      <trkpt lat="45.28063" lon="0.21027">
        <ele>57</ele>
        <time>2025-04-11T10:02:12Z</time>
      </trkpt>
      <trkpt lat="45.28232" lon="0.21091">
        <ele>59</ele>
        <time>2025-04-11T10:02:43Z</time>
      </trkpt>
      <trkpt lat="45.285" lon="0.21239">
        <ele>58</ele>
        <time>2025-04-11T10:03:34Z</time>
      </trkpt>
      <trkpt lat="45.28546" lon="0.21274">
        <ele>59</ele>
        <time>2025-04-11T10:03:43Z</time>
      </trkpt>
      <trkpt lat="45.28564" lon="0.2128">
        <ele>59</ele>
        <time>2025-04-11T10:03:47Z</time>
      </trkpt>
      <trkpt lat="45.28587" lon="0.21267">
        <ele>59</ele>
        <time>2025-04-11T10:03:51Z</time>
      </trkpt>
      <trkpt lat="45.28669" lon="0.21277">
        <ele>54</ele>
        <time>2025-04-11T10:04:06Z</time>
      </trkpt>
      <trkpt lat="45.28716" lon="0.21287">
        <ele>54</ele>
        <time>2025-04-11T10:04:14Z</time>
      </trkpt>
      <trkpt lat="45.2872" lon="0.21387">
        <ele>54</ele>
        <time>2025-04-11T10:04:27Z</time>
      </trkpt>
      <trkpt lat="45.28723" lon="0.21414">
        <ele>55</ele>
        <time>2025-04-11T10:04:30Z</time>
      </trkpt>
      <trkpt lat="45.28728" lon="0.21434">
        <ele>54</ele>
        <time>2025-04-11T10:04:33Z</time>
      </trkpt>
      <trkpt lat="45.28738" lon="0.21454">
        <ele>53</ele>
        <time>2025-04-11T10:04:36Z</time>
      </trkpt>
      <trkpt lat="45.2875" lon="0.2147">
        <ele>53</ele>
        <time>2025-04-11T10:04:39Z</time>
      </trkpt>
      <trkpt lat="45.28925" lon="0.21642">
        <ele>54</ele>
        <time>2025-04-11T10:05:17Z</time>
      </trkpt>
      <trkpt lat="45.29076" lon="0.21797">
        <ele>55</ele>
        <time>2025-04-11T10:05:50Z</time>
      </trkpt>
      <trkpt lat="45.29105" lon="0.2183">
        <ele>55</ele>
        <time>2025-04-11T10:05:56Z</time>
      </trkpt>
      <trkpt lat="45.2917" lon="0.2192">
        <ele>55</ele>
        <time>2025-04-11T10:06:13Z</time>
      </trkpt>
      <trkpt lat="45.29255" lon="0.22052">
        <ele>59</ele>
        <time>2025-04-11T10:06:35Z</time>
      </trkpt>
      <trkpt lat="45.29297" lon="0.22127">
        <ele>58</ele>
        <time>2025-04-11T10:06:47Z</time>
      </trkpt>
      <trkpt lat="45.29411" lon="0.22351">
        <ele>56</ele>
        <time>2025-04-11T10:07:22Z</time>
      </trkpt>
      <trkpt lat="45.29465" lon="0.22423">
        <ele>53</ele>
        <time>2025-04-11T10:07:35Z</time>
      </trkpt>
      <trkpt lat="45.29508" lon="0.22472">
        <ele>51</ele>
        <time>2025-04-11T10:07:45Z</time>
      </trkpt>
      <trkpt lat="45.29632" lon="0.22622">
        <ele>49</ele>
        <time>2025-04-11T10:08:13Z</time>
      </trkpt>
      <trkpt lat="45.29645" lon="0.22639">
        <ele>49</ele>
        <time>2025-04-11T10:08:17Z</time>
      </trkpt>
      <trkpt lat="45.29665" lon="0.22663">
        <ele>49</ele>
        <time>2025-04-11T10:08:21Z</time>
      </trkpt>
      <trkpt lat="45.29686" lon="0.2268">
        <ele>49</ele>
        <time>2025-04-11T10:08:26Z</time>
      </trkpt>
      <trkpt lat="45.29705" lon="0.22686">
        <ele>50</ele>
        <time>2025-04-11T10:08:29Z</time>
      </trkpt>
      <trkpt lat="45.29735" lon="0.22684">
        <ele>50</ele>
        <time>2025-04-11T10:08:34Z</time>
      </trkpt>
      <trkpt lat="45.29847" lon="0.22656">
        <ele>51</ele>
        <time>2025-04-11T10:08:55Z</time>
      </trkpt>
      <trkpt lat="45.29865" lon="0.22655">
        <ele>51</ele>
        <time>2025-04-11T10:08:58Z</time>
      </trkpt>
      <trkpt lat="45.29887" lon="0.22661">
        <ele>51</ele>
        <time>2025-04-11T10:09:02Z</time>
      </trkpt>
      <trkpt lat="45.29903" lon="0.22671">
        <ele>52</ele>
        <time>2025-04-11T10:09:05Z</time>
      </trkpt>
      <trkpt lat="45.29913" lon="0.22681">
        <ele>52</ele>
        <time>2025-04-11T10:09:07Z</time>
      </trkpt>
      <trkpt lat="45.29931" lon="0.22705">
        <ele>55</ele>
        <time>2025-04-11T10:09:11Z</time>
      </trkpt>
      <trkpt lat="45.29944" lon="0.22735">
        <ele>57</ele>
        <time>2025-04-11T10:09:16Z</time>
      </trkpt>
      <trkpt lat="45.30007" lon="0.22939">
        <ele>63</ele>
        <time>2025-04-11T10:09:44Z</time>
      </trkpt>
      <trkpt lat="45.30038" lon="0.23015">
        <ele>65</ele>
        <time>2025-04-11T10:09:55Z</time>
      </trkpt>
      <trkpt lat="45.30283" lon="0.23519">
        <ele>82</ele>
        <time>2025-04-11T10:11:11Z</time>
      </trkpt>
      <trkpt lat="45.30299" lon="0.2355">
        <ele>82</ele>
        <time>2025-04-11T10:11:16Z</time>
      </trkpt>
      <trkpt lat="45.30323" lon="0.23587">
        <ele>82</ele>
        <time>2025-04-11T10:11:23Z</time>
      </trkpt>
      <trkpt lat="45.30718" lon="0.24101">
        <ele>94</ele>
        <time>2025-04-11T10:12:58Z</time>
      </trkpt>
      <trkpt lat="45.30736" lon="0.24129">
        <ele>96</ele>
        <time>2025-04-11T10:13:03Z</time>
      </trkpt>
      <trkpt lat="45.30757" lon="0.24166">
        <ele>98</ele>
        <time>2025-04-11T10:13:09Z</time>
      </trkpt>
      <trkpt lat="45.30985" lon="0.24596">
        <ele>104</ele>
        <time>2025-04-11T10:14:16Z</time>
      </trkpt>
      <trkpt lat="45.31002" lon="0.24623">
        <ele>106</ele>
        <time>2025-04-11T10:14:20Z</time>
      </trkpt>
      <trkpt lat="45.31037" lon="0.24668">
        <ele>107</ele>
        <time>2025-04-11T10:14:29Z</time>
      </trkpt>
      <trkpt lat="45.31292" lon="0.25004">
        <ele>107</ele>
        <time>2025-04-11T10:15:31Z</time>
      </trkpt>
      <trkpt lat="45.31389" lon="0.24962">
        <ele>101</ele>
        <time>2025-04-11T10:15:49Z</time>
      </trkpt>
      <trkpt lat="45.31411" lon="0.24948">
        <ele>101</ele>
        <time>2025-04-11T10:15:53Z</time>
      </trkpt>
      <trkpt lat="45.31424" lon="0.24936">
        <ele>100</ele>
        <time>2025-04-11T10:15:56Z</time>
      </trkpt>
      <trkpt lat="45.31464" lon="0.24893">
        <ele>99</ele>
        <time>2025-04-11T10:16:05Z</time>
      </trkpt>
      <trkpt lat="45.31496" lon="0.24851">
        <ele>98</ele>
        <time>2025-04-11T10:16:12Z</time>
      </trkpt>
      <trkpt lat="45.31515" lon="0.24818">
        <ele>98</ele>
        <time>2025-04-11T10:16:18Z</time>
      </trkpt>
      <trkpt lat="45.31546" lon="0.24756">
        <ele>100</ele>
        <time>2025-04-11T10:16:27Z</time>
      </trkpt>
      <trkpt lat="45.31565" lon="0.24732">
        <ele>100</ele>
        <time>2025-04-11T10:16:32Z</time>
      </trkpt>
      <trkpt lat="45.31596" lon="0.24711">
        <ele>100</ele>
        <time>2025-04-11T10:16:38Z</time>
      </trkpt>
      <trkpt lat="45.31625" lon="0.24701">
        <ele>101</ele>
        <time>2025-04-11T10:16:43Z</time>
      </trkpt>
      <trkpt lat="45.31653" lon="0.24696">
        <ele>101</ele>
        <time>2025-04-11T10:16:48Z</time>
      </trkpt>
      <trkpt lat="45.31692" lon="0.24694">
        <ele>101</ele>
        <time>2025-04-11T10:16:55Z</time>
      </trkpt>
      <trkpt lat="45.31754" lon="0.24696">
        <ele>100</ele>
        <time>2025-04-11T10:17:06Z</time>
      </trkpt>
      <trkpt lat="45.31812" lon="0.24701">
        <ele>101</ele>
        <time>2025-04-11T10:17:17Z</time>
      </trkpt>
      <trkpt lat="45.31965" lon="0.2473">
        <ele>104</ele>
        <time>2025-04-11T10:17:44Z</time>
      </trkpt>
      <trkpt lat="45.31988" lon="0.24731">
        <ele>105</ele>
        <time>2025-04-11T10:17:48Z</time>
      </trkpt>
      <trkpt lat="45.32254" lon="0.24709">
        <ele>112</ele>
        <time>2025-04-11T10:18:36Z</time>
      </trkpt>
      <trkpt lat="45.32489" lon="0.24695">
        <ele>111</ele>
        <time>2025-04-11T10:19:17Z</time>
      </trkpt>
      <trkpt lat="45.32527" lon="0.247">
        <ele>109</ele>
        <time>2025-04-11T10:19:24Z</time>
      </trkpt>
      <trkpt lat="45.3255" lon="0.24706">
        <ele>108</ele>
        <time>2025-04-11T10:19:28Z</time>
      </trkpt>
      <trkpt lat="45.32589" lon="0.2472">
        <ele>106</ele>
        <time>2025-04-11T10:19:36Z</time>
      </trkpt>
      <trkpt lat="45.3261" lon="0.24722">
        <ele>105</ele>
        <time>2025-04-11T10:19:39Z</time>
      </trkpt>
      <trkpt lat="45.32611" lon="0.24728">
        <ele>105</ele>
        <time>2025-04-11T10:19:40Z</time>
      </trkpt>
      <trkpt lat="45.32621" lon="0.2474">
        <ele>104</ele>
        <time>2025-04-11T10:19:42Z</time>
      </trkpt>
      <trkpt lat="45.32724" lon="0.24787">
        <ele>99</ele>
        <time>2025-04-11T10:20:02Z</time>
      </trkpt>
      <trkpt lat="45.32746" lon="0.248">
        <ele>98</ele>
        <time>2025-04-11T10:20:06Z</time>
      </trkpt>
      <trkpt lat="45.32768" lon="0.24818">
        <ele>98</ele>
        <time>2025-04-11T10:20:10Z</time>
      </trkpt>
      <trkpt lat="45.32832" lon="0.24887">
        <ele>96</ele>
        <time>2025-04-11T10:20:25Z</time>
      </trkpt>
      <trkpt lat="45.32919" lon="0.24985">
        <ele>94</ele>
        <time>2025-04-11T10:20:44Z</time>
      </trkpt>
      <trkpt lat="45.32929" lon="0.24992">
        <ele>95</ele>
        <time>2025-04-11T10:20:46Z</time>
      </trkpt>
      <trkpt lat="45.32943" lon="0.24997">
        <ele>95</ele>
        <time>2025-04-11T10:20:49Z</time>
      </trkpt>
      <trkpt lat="45.32956" lon="0.24999">
        <ele>95</ele>
        <time>2025-04-11T10:20:51Z</time>
      </trkpt>
      <trkpt lat="45.32967" lon="0.24997">
        <ele>95</ele>
        <time>2025-04-11T10:20:53Z</time>
      </trkpt>
      <trkpt lat="45.32977" lon="0.24993">
        <ele>95</ele>
        <time>2025-04-11T10:20:55Z</time>
      </trkpt>
      <trkpt lat="45.33137" lon="0.24897">
        <ele>89</ele>
        <time>2025-04-11T10:21:26Z</time>
      </trkpt>
      <trkpt lat="45.33154" lon="0.24891">
        <ele>88</ele>
        <time>2025-04-11T10:21:29Z</time>
      </trkpt>
      <trkpt lat="45.33167" lon="0.24891">
        <ele>88</ele>
        <time>2025-04-11T10:21:31Z</time>
      </trkpt>
      <trkpt lat="45.33179" lon="0.24893">
        <ele>88</ele>
        <time>2025-04-11T10:21:34Z</time>
      </trkpt>
      <trkpt lat="45.33218" lon="0.24906">
        <ele>86</ele>
        <time>2025-04-11T10:21:41Z</time>
      </trkpt>
      <trkpt lat="45.33277" lon="0.24927">
        <ele>83</ele>
        <time>2025-04-11T10:21:52Z</time>
      </trkpt>
      <trkpt lat="45.33298" lon="0.24937">
        <ele>82</ele>
        <time>2025-04-11T10:21:55Z</time>
      </trkpt>
      <trkpt lat="45.33316" lon="0.2495">
        <ele>82</ele>
        <time>2025-04-11T10:21:59Z</time>
      </trkpt>
      <trkpt lat="45.3333" lon="0.24965">
        <ele>81</ele>
        <time>2025-04-11T10:22:02Z</time>
      </trkpt>
      <trkpt lat="45.33612" lon="0.25331">
        <ele>75</ele>
        <time>2025-04-11T10:23:10Z</time>
      </trkpt>
      <trkpt lat="45.33624" lon="0.25345">
        <ele>74</ele>
        <time>2025-04-11T10:23:13Z</time>
      </trkpt>
      <trkpt lat="45.33642" lon="0.25359">
        <ele>72</ele>
        <time>2025-04-11T10:23:17Z</time>
      </trkpt>
      <trkpt lat="45.33659" lon="0.25368">
        <ele>69</ele>
        <time>2025-04-11T10:23:20Z</time>
      </trkpt>
      <trkpt lat="45.3368" lon="0.25374">
        <ele>68</ele>
        <time>2025-04-11T10:23:24Z</time>
      </trkpt>
      <trkpt lat="45.33704" lon="0.25374">
        <ele>68</ele>
        <time>2025-04-11T10:23:28Z</time>
      </trkpt>
      <trkpt lat="45.33727" lon="0.2537">
        <ele>67</ele>
        <time>2025-04-11T10:23:32Z</time>
      </trkpt>
      <trkpt lat="45.34393" lon="0.25094">
        <ele>77</ele>
        <time>2025-04-11T10:25:35Z</time>
      </trkpt>
      <trkpt lat="45.34798" lon="0.24871">
        <ele>77</ele>
        <time>2025-04-11T10:26:53Z</time>
      </trkpt>
      <trkpt lat="45.34819" lon="0.24863">
        <ele>78</ele>
        <time>2025-04-11T10:26:57Z</time>
      </trkpt>
      <trkpt lat="45.34854" lon="0.24843">
        <ele>77</ele>
        <time>2025-04-11T10:27:03Z</time>
      </trkpt>
      <trkpt lat="45.34862" lon="0.24843">
        <ele>77</ele>
        <time>2025-04-11T10:27:05Z</time>
      </trkpt>
      <trkpt lat="45.3487" lon="0.24849">
        <ele>77</ele>
        <time>2025-04-11T10:27:06Z</time>
      </trkpt>
      <trkpt lat="45.34901" lon="0.24917">
        <ele>75</ele>
        <time>2025-04-11T10:27:16Z</time>
      </trkpt>
      <trkpt lat="45.34909" lon="0.24924">
        <ele>75</ele>
        <time>2025-04-11T10:27:18Z</time>
      </trkpt>
      <trkpt lat="45.34919" lon="0.24929">
        <ele>74</ele>
        <time>2025-04-11T10:27:20Z</time>
      </trkpt>
      <trkpt lat="45.34919" lon="0.24934">
        <ele>74</ele>
        <time>2025-04-11T10:27:21Z</time>
      </trkpt>
      <trkpt lat="45.34925" lon="0.24947">
        <ele>74</ele>
        <time>2025-04-11T10:27:23Z</time>
      </trkpt>
      <trkpt lat="45.34958" lon="0.24985">
        <ele>71</ele>
        <time>2025-04-11T10:27:30Z</time>
      </trkpt>
      <trkpt lat="45.35155" lon="0.25235">
        <ele>66</ele>
        <time>2025-04-11T10:28:17Z</time>
      </trkpt>
      <trkpt lat="45.35169" lon="0.25268">
        <ele>66</ele>
        <time>2025-04-11T10:28:22Z</time>
      </trkpt>
      <trkpt lat="45.35173" lon="0.25309">
        <ele>66</ele>
        <time>2025-04-11T10:28:27Z</time>
      </trkpt>
      <trkpt lat="45.35174" lon="0.25316">
        <ele>66</ele>
        <time>2025-04-11T10:28:28Z</time>
      </trkpt>
      <trkpt lat="45.3519" lon="0.25468">
        <ele>62</ele>
        <time>2025-04-11T10:28:47Z</time>
      </trkpt>
      <trkpt lat="45.35191" lon="0.25475">
        <ele>62</ele>
        <time>2025-04-11T10:28:48Z</time>
      </trkpt>
      <trkpt lat="45.35195" lon="0.25517">
        <ele>62</ele>
        <time>2025-04-11T10:28:53Z</time>
      </trkpt>
      <trkpt lat="45.352" lon="0.2554">
        <ele>62</ele>
        <time>2025-04-11T10:28:56Z</time>
      </trkpt>
      <trkpt lat="45.35228" lon="0.25567">
        <ele>62</ele>
        <time>2025-04-11T10:29:02Z</time>
      </trkpt>
      <trkpt lat="45.35246" lon="0.25576">
        <ele>62</ele>
        <time>2025-04-11T10:29:06Z</time>
      </trkpt>
      <trkpt lat="45.35331" lon="0.25613">
        <ele>63</ele>
        <time>2025-04-11T10:29:22Z</time>
      </trkpt>
      <trkpt lat="45.35347" lon="0.25623">
        <ele>63</ele>
        <time>2025-04-11T10:29:25Z</time>
      </trkpt>
      <trkpt lat="45.35362" lon="0.25639">
        <ele>63</ele>
        <time>2025-04-11T10:29:28Z</time>
      </trkpt>
      <trkpt lat="45.35375" lon="0.25662">
        <ele>63</ele>
        <time>2025-04-11T10:29:32Z</time>
      </trkpt>
      <trkpt lat="45.35378" lon="0.25668">
        <ele>64</ele>
        <time>2025-04-11T10:29:33Z</time>
      </trkpt>
      <trkpt lat="45.35413" lon="0.25747">
        <ele>63</ele>
        <time>2025-04-11T10:29:44Z</time>
      </trkpt>
      <trkpt lat="45.3548" lon="0.25838">
        <ele>62</ele>
        <time>2025-04-11T10:30:01Z</time>
      </trkpt>
      <trkpt lat="45.35643" lon="0.25984">
        <ele>63</ele>
        <time>2025-04-11T10:30:35Z</time>
      </trkpt>
      <trkpt lat="45.35688" lon="0.26024">
        <ele>64</ele>
        <time>2025-04-11T10:30:44Z</time>
      </trkpt>
      <trkpt lat="45.35709" lon="0.26028">
        <ele>65</ele>
        <time>2025-04-11T10:30:48Z</time>
      </trkpt>
      <trkpt lat="45.35813" lon="0.26016">
        <ele>73</ele>
        <time>2025-04-11T10:31:07Z</time>
      </trkpt>
      <trkpt lat="45.36058" lon="0.26085">
        <ele>81</ele>
        <time>2025-04-11T10:31:51Z</time>
      </trkpt>
      <trkpt lat="45.36121" lon="0.26123">
        <ele>82</ele>
        <time>2025-04-11T10:32:03Z</time>
      </trkpt>
      <trkpt lat="45.36217" lon="0.26132">
        <ele>83</ele>
        <time>2025-04-11T10:32:21Z</time>
      </trkpt>
      <trkpt lat="45.36369" lon="0.26176">
        <ele>93</ele>
        <time>2025-04-11T10:32:48Z</time>
      </trkpt>
      <trkpt lat="45.36391" lon="0.26176">
        <ele>95</ele>
        <time>2025-04-11T10:32:52Z</time>
      </trkpt>
      <trkpt lat="45.36412" lon="0.26157">
        <ele>96</ele>
        <time>2025-04-11T10:32:56Z</time>
      </trkpt>
      <trkpt lat="45.36451" lon="0.26094">
        <ele>92</ele>
        <time>2025-04-11T10:33:07Z</time>
      </trkpt>
      <trkpt lat="45.36492" lon="0.26055">
        <ele>90</ele>
        <time>2025-04-11T10:33:16Z</time>
      </trkpt>
      <trkpt lat="45.36551" lon="0.26024">
        <ele>89</ele>
        <time>2025-04-11T10:33:27Z</time>
      </trkpt>
      <trkpt lat="45.36585" lon="0.26021">
        <ele>89</ele>
        <time>2025-04-11T10:33:33Z</time>
      </trkpt>
      <trkpt lat="45.3664" lon="0.26035">
        <ele>90</ele>
        <time>2025-04-11T10:33:43Z</time>
      </trkpt>
      <trkpt lat="45.36707" lon="0.26059">
        <ele>93</ele>
        <time>2025-04-11T10:33:55Z</time>
      </trkpt>
      <trkpt lat="45.36738" lon="0.26063">
        <ele>94</ele>
        <time>2025-04-11T10:34:01Z</time>
      </trkpt>
      <trkpt lat="45.36896" lon="0.25984">
        <ele>89</ele>
        <time>2025-04-11T10:34:31Z</time>
      </trkpt>
      <trkpt lat="45.36934" lon="0.25977">
        <ele>89</ele>
        <time>2025-04-11T10:34:37Z</time>
      </trkpt>
      <trkpt lat="45.37117" lon="0.25976">
        <ele>87</ele>
        <time>2025-04-11T10:35:10Z</time>
      </trkpt>
      <trkpt lat="45.37132" lon="0.25978">
        <ele>87</ele>
        <time>2025-04-11T10:35:13Z</time>
      </trkpt>
      <trkpt lat="45.37137" lon="0.25992">
        <ele>88</ele>
        <time>2025-04-11T10:35:15Z</time>
      </trkpt>
      <trkpt lat="45.37193" lon="0.26064">
        <ele>98</ele>
        <time>2025-04-11T10:35:28Z</time>
      </trkpt>
      <trkpt lat="45.37211" lon="0.26073">
        <ele>99</ele>
        <time>2025-04-11T10:35:31Z</time>
      </trkpt>
      <trkpt lat="45.37261" lon="0.2607">
        <ele>99</ele>
        <time>2025-04-11T10:35:40Z</time>
      </trkpt>
      <trkpt lat="45.37273" lon="0.2607">
        <ele>99</ele>
        <time>2025-04-11T10:35:42Z</time>
      </trkpt>
      <trkpt lat="45.37291" lon="0.26075">
        <ele>99</ele>
        <time>2025-04-11T10:35:46Z</time>
      </trkpt>
      <trkpt lat="45.37302" lon="0.26096">
        <ele>101</ele>
        <time>2025-04-11T10:35:49Z</time>
      </trkpt>
      <trkpt lat="45.37301" lon="0.26119">
        <ele>104</ele>
        <time>2025-04-11T10:35:52Z</time>
      </trkpt>
      <trkpt lat="45.37293" lon="0.26146">
        <ele>107</ele>
        <time>2025-04-11T10:35:56Z</time>
      </trkpt>
      <trkpt lat="45.37289" lon="0.26169">
        <ele>110</ele>
        <time>2025-04-11T10:35:59Z</time>
      </trkpt>
      <trkpt lat="45.37299" lon="0.26273">
        <ele>117</ele>
        <time>2025-04-11T10:36:12Z</time>
      </trkpt>
      <trkpt lat="45.37306" lon="0.26286">
        <ele>117</ele>
        <time>2025-04-11T10:36:14Z</time>
      </trkpt>
      <trkpt lat="45.37313" lon="0.26293">
        <ele>118</ele>
        <time>2025-04-11T10:36:15Z</time>
      </trkpt>
      <trkpt lat="45.37371" lon="0.26317">
        <ele>120</ele>
        <time>2025-04-11T10:36:26Z</time>
      </trkpt>
      <trkpt lat="45.37501" lon="0.26398">
        <ele>127</ele>
        <time>2025-04-11T10:36:51Z</time>
      </trkpt>
      <trkpt lat="45.37554" lon="0.26454">
        <ele>127</ele>
        <time>2025-04-11T10:37:03Z</time>
      </trkpt>
      <trkpt lat="45.37616" lon="0.26496">
        <ele>129</ele>
        <time>2025-04-11T10:37:15Z</time>
      </trkpt>
      <trkpt lat="45.37651" lon="0.26526">
        <ele>127</ele>
        <time>2025-04-11T10:37:22Z</time>
      </trkpt>
      <trkpt lat="45.37678" lon="0.26553">
        <ele>126</ele>
        <time>2025-04-11T10:37:28Z</time>
      </trkpt>
      <trkpt lat="45.37728" lon="0.2662">
        <ele>126</ele>
        <time>2025-04-11T10:37:41Z</time>
      </trkpt>
      <trkpt lat="45.37757" lon="0.26688">
        <ele>127</ele>
        <time>2025-04-11T10:37:50Z</time>
      </trkpt>
      <trkpt lat="45.37764" lon="0.26702">
        <ele>127</ele>
        <time>2025-04-11T10:37:53Z</time>
      </trkpt>
      <trkpt lat="45.37779" lon="0.26712">
        <ele>126</ele>
        <time>2025-04-11T10:37:56Z</time>
      </trkpt>
      <trkpt lat="45.37872" lon="0.26764">
        <ele>121</ele>
        <time>2025-04-11T10:38:13Z</time>
      </trkpt>
      <trkpt lat="45.37882" lon="0.26764">
        <ele>119</ele>
        <time>2025-04-11T10:38:15Z</time>
      </trkpt>
      <trkpt lat="45.37888" lon="0.26783">
        <ele>119</ele>
        <time>2025-04-11T10:38:18Z</time>
      </trkpt>
      <trkpt lat="45.37889" lon="0.268">
        <ele>120</ele>
        <time>2025-04-11T10:38:20Z</time>
      </trkpt>
      <trkpt lat="45.37879" lon="0.26851">
        <ele>125</ele>
        <time>2025-04-11T10:38:26Z</time>
      </trkpt>
      <trkpt lat="45.37879" lon="0.26872">
        <ele>127</ele>
        <time>2025-04-11T10:38:29Z</time>
      </trkpt>
      <trkpt lat="45.37882" lon="0.26894">
        <ele>127</ele>
        <time>2025-04-11T10:38:32Z</time>
      </trkpt>
      <trkpt lat="45.37889" lon="0.26913">
        <ele>128</ele>
        <time>2025-04-11T10:38:35Z</time>
      </trkpt>
      <trkpt lat="45.37898" lon="0.26928">
        <ele>128</ele>
        <time>2025-04-11T10:38:37Z</time>
      </trkpt>
      <trkpt lat="45.37934" lon="0.26961">
        <ele>128</ele>
        <time>2025-04-11T10:38:45Z</time>
      </trkpt>
      <trkpt lat="45.37958" lon="0.26979">
        <ele>129</ele>
        <time>2025-04-11T10:38:49Z</time>
      </trkpt>
      <trkpt lat="45.37971" lon="0.26994">
        <ele>130</ele>
        <time>2025-04-11T10:38:52Z</time>
      </trkpt>
      <trkpt lat="45.3799" lon="0.27021">
        <ele>130</ele>
        <time>2025-04-11T10:38:57Z</time>
      </trkpt>
      <trkpt lat="45.38" lon="0.27023">
        <ele>129</ele>
        <time>2025-04-11T10:38:59Z</time>
      </trkpt>
      <trkpt lat="45.38014" lon="0.2703">
        <ele>130</ele>
        <time>2025-04-11T10:39:02Z</time>
      </trkpt>
      <trkpt lat="45.38255" lon="0.27159">
        <ele>149</ele>
        <time>2025-04-11T10:39:47Z</time>
      </trkpt>
      <trkpt lat="45.38303" lon="0.27198">
        <ele>147</ele>
        <time>2025-04-11T10:39:57Z</time>
      </trkpt>
      <trkpt lat="45.38457" lon="0.27202">
        <ele>136</ele>
        <time>2025-04-11T10:40:25Z</time>
      </trkpt>
      <trkpt lat="45.38493" lon="0.2723">
        <ele>136</ele>
        <time>2025-04-11T10:40:32Z</time>
      </trkpt>
      <trkpt lat="45.38561" lon="0.27294">
        <ele>132</ele>
        <time>2025-04-11T10:40:47Z</time>
      </trkpt>
      <trkpt lat="45.38602" lon="0.27338">
        <ele>132</ele>
        <time>2025-04-11T10:40:56Z</time>
      </trkpt>
      <trkpt lat="45.38613" lon="0.27386">
        <ele>130</ele>
        <time>2025-04-11T10:41:02Z</time>
      </trkpt>
      <trkpt lat="45.38619" lon="0.27481">
        <ele>126</ele>
        <time>2025-04-11T10:41:14Z</time>
      </trkpt>
      <trkpt lat="45.38642" lon="0.27532">
        <ele>124</ele>
        <time>2025-04-11T10:41:21Z</time>
      </trkpt>
      <trkpt lat="45.38718" lon="0.27612">
        <ele>123</ele>
        <time>2025-04-11T10:41:38Z</time>
      </trkpt>
      <trkpt lat="45.38806" lon="0.27683">
        <ele>125</ele>
        <time>2025-04-11T10:41:56Z</time>
      </trkpt>
      <trkpt lat="45.38888" lon="0.27766">
        <ele>124</ele>
        <time>2025-04-11T10:42:14Z</time>
      </trkpt>
      <trkpt lat="45.38953" lon="0.27865">
        <ele>129</ele>
        <time>2025-04-11T10:42:31Z</time>
      </trkpt>
      <trkpt lat="45.38973" lon="0.27901">
        <ele>133</ele>
        <time>2025-04-11T10:42:37Z</time>
      </trkpt>
      <trkpt lat="45.38995" lon="0.27947">
        <ele>138</ele>
        <time>2025-04-11T10:42:44Z</time>
      </trkpt>
      <trkpt lat="45.39006" lon="0.27984">
        <ele>140</ele>
        <time>2025-04-11T10:42:49Z</time>
      </trkpt>
      <trkpt lat="45.39011" lon="0.2801">
        <ele>142</ele>
        <time>2025-04-11T10:42:52Z</time>
      </trkpt>
      <trkpt lat="45.39014" lon="0.28033">
        <ele>143</ele>
        <time>2025-04-11T10:42:55Z</time>
      </trkpt>
      <trkpt lat="45.39015" lon="0.28054">
        <ele>144</ele>
        <time>2025-04-11T10:42:58Z</time>
      </trkpt>
      <trkpt lat="45.39012" lon="0.28079">
        <ele>145</ele>
        <time>2025-04-11T10:43:01Z</time>
      </trkpt>
      <trkpt lat="45.39002" lon="0.28121">
        <ele>147</ele>
        <time>2025-04-11T10:43:06Z</time>
      </trkpt>
      <trkpt lat="45.38992" lon="0.28148">
        <ele>147</ele>
        <time>2025-04-11T10:43:10Z</time>
      </trkpt>
      <trkpt lat="45.38977" lon="0.2818">
        <ele>147</ele>
        <time>2025-04-11T10:43:15Z</time>
      </trkpt>
      <trkpt lat="45.38964" lon="0.28218">
        <ele>147</ele>
        <time>2025-04-11T10:43:20Z</time>
      </trkpt>
      <trkpt lat="45.38961" lon="0.28253">
        <ele>149</ele>
        <time>2025-04-11T10:43:25Z</time>
      </trkpt>
      <trkpt lat="45.3896" lon="0.28306">
        <ele>148</ele>
        <time>2025-04-11T10:43:31Z</time>
      </trkpt>
      <trkpt lat="45.38963" lon="0.28354">
        <ele>147</ele>
        <time>2025-04-11T10:43:37Z</time>
      </trkpt>
      <trkpt lat="45.38965" lon="0.28372">
        <ele>146</ele>
        <time>2025-04-11T10:43:40Z</time>
      </trkpt>
      <trkpt lat="45.38969" lon="0.28388">
        <ele>146</ele>
        <time>2025-04-11T10:43:42Z</time>
      </trkpt>
      <trkpt lat="45.38975" lon="0.28407">
        <ele>145</ele>
        <time>2025-04-11T10:43:44Z</time>
      </trkpt>
      <trkpt lat="45.38984" lon="0.28424">
        <ele>145</ele>
        <time>2025-04-11T10:43:47Z</time>
      </trkpt>
      <trkpt lat="45.39065" lon="0.28538">
        <ele>139</ele>
        <time>2025-04-11T10:44:07Z</time>
      </trkpt>
      <trkpt lat="45.39094" lon="0.28552">
        <ele>137</ele>
        <time>2025-04-11T10:44:13Z</time>
      </trkpt>
      <trkpt lat="45.39175" lon="0.28656">
        <ele>135</ele>
        <time>2025-04-11T10:44:32Z</time>
      </trkpt>
      <trkpt lat="45.39208" lon="0.28694">
        <ele>134</ele>
        <time>2025-04-11T10:44:40Z</time>
      </trkpt>
      <trkpt lat="45.39228" lon="0.28713">
        <ele>134</ele>
        <time>2025-04-11T10:44:44Z</time>
      </trkpt>
      <trkpt lat="45.39246" lon="0.28723">
        <ele>133</ele>
        <time>2025-04-11T10:44:47Z</time>
      </trkpt>
      <trkpt lat="45.39262" lon="0.28723">
        <ele>132</ele>
        <time>2025-04-11T10:44:50Z</time>
      </trkpt>
      <trkpt lat="45.39505" lon="0.28595">
        <ele>112</ele>
        <time>2025-04-11T10:45:36Z</time>
      </trkpt>
      <trkpt lat="45.39571" lon="0.28543">
        <ele>108</ele>
        <time>2025-04-11T10:45:50Z</time>
      </trkpt>
      <trkpt lat="45.39668" lon="0.28487">
        <ele>104</ele>
        <time>2025-04-11T10:46:08Z</time>
      </trkpt>
      <trkpt lat="45.39877" lon="0.28503">
        <ele>97</ele>
        <time>2025-04-11T10:46:46Z</time>
      </trkpt>
      <trkpt lat="45.39908" lon="0.28495">
        <ele>95</ele>
        <time>2025-04-11T10:46:51Z</time>
      </trkpt>
      <trkpt lat="45.39915" lon="0.28481">
        <ele>95</ele>
        <time>2025-04-11T10:46:53Z</time>
      </trkpt>
      <trkpt lat="45.39981" lon="0.28337">
        <ele>92</ele>
        <time>2025-04-11T10:47:15Z</time>
      </trkpt>
      <trkpt lat="45.40007" lon="0.28312">
        <ele>92</ele>
        <time>2025-04-11T10:47:21Z</time>
      </trkpt>
      <trkpt lat="45.4034" lon="0.28113">
        <ele>84</ele>
        <time>2025-04-11T10:48:25Z</time>
      </trkpt>
      <trkpt lat="45.40416" lon="0.28082">
        <ele>81</ele>
        <time>2025-04-11T10:48:39Z</time>
      </trkpt>
      <trkpt lat="45.40487" lon="0.28072">
        <ele>81</ele>
        <time>2025-04-11T10:48:52Z</time>
      </trkpt>
      <trkpt lat="45.40653" lon="0.28095">
        <ele>83</ele>
        <time>2025-04-11T10:49:21Z</time>
      </trkpt>
      <trkpt lat="45.40951" lon="0.28188">
        <ele>80</ele>
        <time>2025-04-11T10:50:15Z</time>
      </trkpt>
      <trkpt lat="45.40979" lon="0.28175">
        <ele>81</ele>
        <time>2025-04-11T10:50:21Z</time>
      </trkpt>
      <trkpt lat="45.41091" lon="0.28069">
        <ele>84</ele>
        <time>2025-04-11T10:50:45Z</time>
      </trkpt>
      <trkpt lat="45.41142" lon="0.28028">
        <ele>85</ele>
        <time>2025-04-11T10:50:55Z</time>
      </trkpt>
      <trkpt lat="45.41298" lon="0.27983">
        <ele>78</ele>
        <time>2025-04-11T10:51:23Z</time>
      </trkpt>
      <trkpt lat="45.41419" lon="0.27961">
        <ele>77</ele>
        <time>2025-04-11T10:51:45Z</time>
      </trkpt>
      <trkpt lat="45.41789" lon="0.28039">
        <ele>77</ele>
        <time>2025-04-11T10:52:52Z</time>
      </trkpt>
      <trkpt lat="45.42052" lon="0.28016">
        <ele>80</ele>
        <time>2025-04-11T10:53:39Z</time>
      </trkpt>
      <trkpt lat="45.42215" lon="0.2795">
        <ele>77</ele>
        <time>2025-04-11T10:54:09Z</time>
      </trkpt>
      <trkpt lat="45.42318" lon="0.27891">
        <ele>78</ele>
        <time>2025-04-11T10:54:28Z</time>
      </trkpt>
      <trkpt lat="45.42332" lon="0.27876">
        <ele>78</ele>
        <time>2025-04-11T10:54:32Z</time>
      </trkpt>
      <trkpt lat="45.42375" lon="0.27829">
        <ele>78</ele>
        <time>2025-04-11T10:54:41Z</time>
      </trkpt>
      <trkpt lat="45.42433" lon="0.27724">
        <ele>78</ele>
        <time>2025-04-11T10:54:58Z</time>
      </trkpt>
      <trkpt lat="45.42453" lon="0.27705">
        <ele>78</ele>
        <time>2025-04-11T10:55:02Z</time>
      </trkpt>
      <trkpt lat="45.42388" lon="0.28334">
        <ele>87</ele>
        <time>2025-04-11T10:56:22Z</time>
      </trkpt>
      <trkpt lat="45.42384" lon="0.28363">
        <ele>86</ele>
        <time>2025-04-11T10:56:25Z</time>
      </trkpt>
      <trkpt lat="45.42377" lon="0.28376">
        <ele>86</ele>
        <time>2025-04-11T10:56:27Z</time>
      </trkpt>
      <trkpt lat="45.423" lon="0.2847">
        <ele>87</ele>
        <time>2025-04-11T10:56:45Z</time>
      </trkpt>
      <trkpt lat="45.42277" lon="0.28503">
        <ele>88</ele>
        <time>2025-04-11T10:56:51Z</time>
      </trkpt>
      <trkpt lat="45.42268" lon="0.28519">
        <ele>88</ele>
        <time>2025-04-11T10:56:54Z</time>
      </trkpt>
      <trkpt lat="45.42091" lon="0.29015">
        <ele>103</ele>
        <time>2025-04-11T10:58:03Z</time>
      </trkpt>
      <trkpt lat="45.41848" lon="0.29502">
        <ele>117</ele>
        <time>2025-04-11T10:59:18Z</time>
      </trkpt>
      <trkpt lat="45.41797" lon="0.29607">
        <ele>119</ele>
        <time>2025-04-11T10:59:34Z</time>
      </trkpt>
      <trkpt lat="45.41712" lon="0.29802">
        <ele>117</ele>
        <time>2025-04-11T11:00:02Z</time>
      </trkpt>
      <trkpt lat="45.41706" lon="0.29812">
        <ele>116</ele>
        <time>2025-04-11T11:00:04Z</time>
      </trkpt>
      <trkpt lat="45.4169" lon="0.29831">
        <ele>115</ele>
        <time>2025-04-11T11:00:08Z</time>
      </trkpt>
      <trkpt lat="45.41675" lon="0.29843">
        <ele>114</ele>
        <time>2025-04-11T11:00:11Z</time>
      </trkpt>
      <trkpt lat="45.41655" lon="0.29855">
        <ele>113</ele>
        <time>2025-04-11T11:00:15Z</time>
      </trkpt>
      <trkpt lat="45.41632" lon="0.29865">
        <ele>111</ele>
        <time>2025-04-11T11:00:19Z</time>
      </trkpt>
      <trkpt lat="45.41612" lon="0.29871">
        <ele>111</ele>
        <time>2025-04-11T11:00:23Z</time>
      </trkpt>
      <trkpt lat="45.41553" lon="0.29879">
        <ele>109</ele>
        <time>2025-04-11T11:00:33Z</time>
      </trkpt>
      <trkpt lat="45.41543" lon="0.29883">
        <ele>108</ele>
        <time>2025-04-11T11:00:35Z</time>
      </trkpt>
      <trkpt lat="45.41532" lon="0.29892">
        <ele>107</ele>
        <time>2025-04-11T11:00:37Z</time>
      </trkpt>
      <trkpt lat="45.41522" lon="0.29905">
        <ele>107</ele>
        <time>2025-04-11T11:00:40Z</time>
      </trkpt>
      <trkpt lat="45.41513" lon="0.29923">
        <ele>106</ele>
        <time>2025-04-11T11:00:42Z</time>
      </trkpt>
      <trkpt lat="45.41501" lon="0.29952">
        <ele>107</ele>
        <time>2025-04-11T11:00:47Z</time>
      </trkpt>
      <trkpt lat="45.4149" lon="0.2999">
        <ele>109</ele>
        <time>2025-04-11T11:00:52Z</time>
      </trkpt>
      <trkpt lat="45.41482" lon="0.30038">
        <ele>111</ele>
        <time>2025-04-11T11:00:58Z</time>
      </trkpt>
      <trkpt lat="45.4148" lon="0.30077">
        <ele>114</ele>
        <time>2025-04-11T11:01:03Z</time>
      </trkpt>
      <trkpt lat="45.41481" lon="0.30116">
        <ele>117</ele>
        <time>2025-04-11T11:01:08Z</time>
      </trkpt>
      <trkpt lat="45.41483" lon="0.30138">
        <ele>118</ele>
        <time>2025-04-11T11:01:10Z</time>
      </trkpt>
      <trkpt lat="45.4149" lon="0.30167">
        <ele>120</ele>
        <time>2025-04-11T11:01:14Z</time>
      </trkpt>
      <trkpt lat="45.41499" lon="0.30187">
        <ele>122</ele>
        <time>2025-04-11T11:01:17Z</time>
      </trkpt>
      <trkpt lat="45.41506" lon="0.30196">
        <ele>122</ele>
        <time>2025-04-11T11:01:19Z</time>
      </trkpt>
      <trkpt lat="45.4155" lon="0.30243">
        <ele>124</ele>
        <time>2025-04-11T11:01:29Z</time>
      </trkpt>
      <trkpt lat="45.41559" lon="0.30259">
        <ele>124</ele>
        <time>2025-04-11T11:01:31Z</time>
      </trkpt>
      <trkpt lat="45.41563" lon="0.30279">
        <ele>125</ele>
        <time>2025-04-11T11:01:34Z</time>
      </trkpt>
      <trkpt lat="45.41562" lon="0.303">
        <ele>126</ele>
        <time>2025-04-11T11:01:37Z</time>
      </trkpt>
      <trkpt lat="45.41556" lon="0.30321">
        <ele>127</ele>
        <time>2025-04-11T11:01:39Z</time>
      </trkpt>
      <trkpt lat="45.41546" lon="0.30334">
        <ele>128</ele>
        <time>2025-04-11T11:01:42Z</time>
      </trkpt>
      <trkpt lat="45.41481" lon="0.30362">
        <ele>131</ele>
        <time>2025-04-11T11:01:54Z</time>
      </trkpt>
      <trkpt lat="45.41501" lon="0.3043">
        <ele>127</ele>
        <time>2025-04-11T11:02:03Z</time>
      </trkpt>
      <trkpt lat="45.41514" lon="0.30467">
        <ele>125</ele>
        <time>2025-04-11T11:02:08Z</time>
      </trkpt>
      <trkpt lat="45.41538" lon="0.30518">
        <ele>124</ele>
        <time>2025-04-11T11:02:16Z</time>
      </trkpt>
      <trkpt lat="45.41554" lon="0.3054">
        <ele>125</ele>
        <time>2025-04-11T11:02:20Z</time>
      </trkpt>
      <trkpt lat="45.41564" lon="0.30563">
        <ele>126</ele>
        <time>2025-04-11T11:02:23Z</time>
      </trkpt>
      <trkpt lat="45.4157" lon="0.3058">
        <ele>128</ele>
        <time>2025-04-11T11:02:26Z</time>
      </trkpt>
      <trkpt lat="45.41576" lon="0.3061">
        <ele>129</ele>
        <time>2025-04-11T11:02:29Z</time>
      </trkpt>
      <trkpt lat="45.41579" lon="0.30635">
        <ele>130</ele>
        <time>2025-04-11T11:02:33Z</time>
      </trkpt>
      <trkpt lat="45.4158" lon="0.3071">
        <ele>133</ele>
        <time>2025-04-11T11:02:42Z</time>
      </trkpt>
      <trkpt lat="45.41586" lon="0.30762">
        <ele>134</ele>
        <time>2025-04-11T11:02:49Z</time>
      </trkpt>
      <trkpt lat="45.41612" lon="0.30928">
        <ele>136</ele>
        <time>2025-04-11T11:03:10Z</time>
      </trkpt>
      <trkpt lat="45.41619" lon="0.30957">
        <ele>134</ele>
        <time>2025-04-11T11:03:14Z</time>
      </trkpt>
      <trkpt lat="45.41631" lon="0.30981">
        <ele>133</ele>
        <time>2025-04-11T11:03:17Z</time>
      </trkpt>
      <trkpt lat="45.41642" lon="0.30993">
        <ele>133</ele>
        <time>2025-04-11T11:03:20Z</time>
      </trkpt>
      <trkpt lat="45.41653" lon="0.31001">
        <ele>133</ele>
        <time>2025-04-11T11:03:22Z</time>
      </trkpt>
      <trkpt lat="45.41677" lon="0.31013">
        <ele>131</ele>
        <time>2025-04-11T11:03:27Z</time>
      </trkpt>
      <trkpt lat="45.41806" lon="0.31038">
        <ele>127</ele>
        <time>2025-04-11T11:03:50Z</time>
      </trkpt>
      <trkpt lat="45.4185" lon="0.31053">
        <ele>125</ele>
        <time>2025-04-11T11:03:58Z</time>
      </trkpt>
      <trkpt lat="45.41929" lon="0.31069">
        <ele>125</ele>
        <time>2025-04-11T11:04:12Z</time>
      </trkpt>
      <trkpt lat="45.41975" lon="0.31073">
        <ele>121</ele>
        <time>2025-04-11T11:04:20Z</time>
      </trkpt>
      <trkpt lat="45.42027" lon="0.3107">
        <ele>118</ele>
        <time>2025-04-11T11:04:29Z</time>
      </trkpt>
      <trkpt lat="45.4209" lon="0.31073">
        <ele>114</ele>
        <time>2025-04-11T11:04:41Z</time>
      </trkpt>
      <trkpt lat="45.42101" lon="0.31077">
        <ele>114</ele>
        <time>2025-04-11T11:04:43Z</time>
      </trkpt>
      <trkpt lat="45.4211" lon="0.31083">
        <ele>114</ele>
        <time>2025-04-11T11:04:44Z</time>
      </trkpt>
      <trkpt lat="45.42118" lon="0.31092">
        <ele>114</ele>
        <time>2025-04-11T11:04:46Z</time>
      </trkpt>
      <trkpt lat="45.42125" lon="0.31104">
        <ele>114</ele>
        <time>2025-04-11T11:04:48Z</time>
      </trkpt>
      <trkpt lat="45.42128" lon="0.31117">
        <ele>113</ele>
        <time>2025-04-11T11:04:50Z</time>
      </trkpt>
      <trkpt lat="45.4213" lon="0.31131">
        <ele>112</ele>
        <time>2025-04-11T11:04:52Z</time>
      </trkpt>
      <trkpt lat="45.4213" lon="0.31148">
        <ele>111</ele>
        <time>2025-04-11T11:04:54Z</time>
      </trkpt>
      <trkpt lat="45.42125" lon="0.31203">
        <ele>107</ele>
        <time>2025-04-11T11:05:01Z</time>
      </trkpt>
      <trkpt lat="45.42126" lon="0.31217">
        <ele>106</ele>
        <time>2025-04-11T11:05:02Z</time>
      </trkpt>
      <trkpt lat="45.42131" lon="0.31231">
        <ele>106</ele>
        <time>2025-04-11T11:05:04Z</time>
      </trkpt>
      <trkpt lat="45.42137" lon="0.3124">
        <ele>106</ele>
        <time>2025-04-11T11:05:06Z</time>
      </trkpt>
      <trkpt lat="45.42147" lon="0.31249">
        <ele>107</ele>
        <time>2025-04-11T11:05:08Z</time>
      </trkpt>
      <trkpt lat="45.42195" lon="0.31283">
        <ele>103</ele>
        <time>2025-04-11T11:05:18Z</time>
      </trkpt>
      <trkpt lat="45.42219" lon="0.31304">
        <ele>99</ele>
        <time>2025-04-11T11:05:23Z</time>
      </trkpt>
      <trkpt lat="45.42244" lon="0.31325">
        <ele>97</ele>
        <time>2025-04-11T11:05:28Z</time>
      </trkpt>
      <trkpt lat="45.42254" lon="0.31338">
        <ele>96</ele>
        <time>2025-04-11T11:05:30Z</time>
      </trkpt>
      <trkpt lat="45.42257" lon="0.31356">
        <ele>95</ele>
        <time>2025-04-11T11:05:33Z</time>
      </trkpt>
      <trkpt lat="45.42253" lon="0.31374">
        <ele>94</ele>
        <time>2025-04-11T11:05:35Z</time>
      </trkpt>
      <trkpt lat="45.42242" lon="0.31416">
        <ele>92</ele>
        <time>2025-04-11T11:05:40Z</time>
      </trkpt>
      <trkpt lat="45.42225" lon="0.31516">
        <ele>93</ele>
        <time>2025-04-11T11:05:53Z</time>
      </trkpt>
      <trkpt lat="45.4222" lon="0.31552">
        <ele>93</ele>
        <time>2025-04-11T11:05:58Z</time>
      </trkpt>
      <trkpt lat="45.42218" lon="0.31572">
        <ele>94</ele>
        <time>2025-04-11T11:06:00Z</time>
      </trkpt>
      <trkpt lat="45.42213" lon="0.31595">
        <ele>94</ele>
        <time>2025-04-11T11:06:03Z</time>
      </trkpt>
      <trkpt lat="45.422" lon="0.31636">
        <ele>95</ele>
        <time>2025-04-11T11:06:09Z</time>
      </trkpt>
      <trkpt lat="45.42198" lon="0.31655">
        <ele>95</ele>
        <time>2025-04-11T11:06:11Z</time>
      </trkpt>
      <trkpt lat="45.42198" lon="0.31683">
        <ele>95</ele>
        <time>2025-04-11T11:06:15Z</time>
      </trkpt>
      <trkpt lat="45.42204" lon="0.3174">
        <ele>94</ele>
        <time>2025-04-11T11:06:22Z</time>
      </trkpt>
      <trkpt lat="45.422" lon="0.31838">
        <ele>96</ele>
        <time>2025-04-11T11:06:34Z</time>
      </trkpt>
      <trkpt lat="45.42204" lon="0.31889">
        <ele>96</ele>
        <time>2025-04-11T11:06:41Z</time>
      </trkpt>
      <trkpt lat="45.42209" lon="0.31904">
        <ele>96</ele>
        <time>2025-04-11T11:06:43Z</time>
      </trkpt>
      <trkpt lat="45.42236" lon="0.3195">
        <ele>96</ele>
        <time>2025-04-11T11:06:50Z</time>
      </trkpt>
      <trkpt lat="45.42307" lon="0.32115">
        <ele>95</ele>
        <time>2025-04-11T11:07:15Z</time>
      </trkpt>
      <trkpt lat="45.42357" lon="0.32218">
        <ele>98</ele>
        <time>2025-04-11T11:07:30Z</time>
      </trkpt>
      <trkpt lat="45.42409" lon="0.32348">
        <ele>99</ele>
        <time>2025-04-11T11:07:49Z</time>
      </trkpt>
      <trkpt lat="45.42418" lon="0.32367">
        <ele>100</ele>
        <time>2025-04-11T11:07:52Z</time>
      </trkpt>
      <trkpt lat="45.42456" lon="0.32429">
        <ele>101</ele>
        <time>2025-04-11T11:08:02Z</time>
      </trkpt>
      <trkpt lat="45.42464" lon="0.32448">
        <ele>101</ele>
        <time>2025-04-11T11:08:05Z</time>
      </trkpt>
      <trkpt lat="45.4248" lon="0.32494">
        <ele>101</ele>
        <time>2025-04-11T11:08:11Z</time>
      </trkpt>
      <trkpt lat="45.42493" lon="0.32552">
        <ele>100</ele>
        <time>2025-04-11T11:08:19Z</time>
      </trkpt>
      <trkpt lat="45.42507" lon="0.32597">
        <ele>99</ele>
        <time>2025-04-11T11:08:25Z</time>
      </trkpt>
      <trkpt lat="45.42527" lon="0.32633">
        <ele>98</ele>
        <time>2025-04-11T11:08:31Z</time>
      </trkpt>
      <trkpt lat="45.42617" lon="0.32756">
        <ele>96</ele>
        <time>2025-04-11T11:08:53Z</time>
      </trkpt>
      <trkpt lat="45.42642" lon="0.32802">
        <ele>96</ele>
        <time>2025-04-11T11:09:00Z</time>
      </trkpt>
      <trkpt lat="45.42687" lon="0.32911">
        <ele>93</ele>
        <time>2025-04-11T11:09:16Z</time>
      </trkpt>
      <trkpt lat="45.42714" lon="0.32961">
        <ele>92</ele>
        <time>2025-04-11T11:09:24Z</time>
      </trkpt>
      <trkpt lat="45.42741" lon="0.33004">
        <ele>92</ele>
        <time>2025-04-11T11:09:31Z</time>
      </trkpt>
      <trkpt lat="45.42774" lon="0.33045">
        <ele>95</ele>
        <time>2025-04-11T11:09:39Z</time>
      </trkpt>
      <trkpt lat="45.42781" lon="0.3306">
        <ele>95</ele>
        <time>2025-04-11T11:09:41Z</time>
      </trkpt>
      <trkpt lat="45.42788" lon="0.33084">
        <ele>96</ele>
        <time>2025-04-11T11:09:44Z</time>
      </trkpt>
      <trkpt lat="45.42794" lon="0.33125">
        <ele>96</ele>
        <time>2025-04-11T11:09:50Z</time>
      </trkpt>
      <trkpt lat="45.42797" lon="0.33159">
        <ele>96</ele>
        <time>2025-04-11T11:09:54Z</time>
      </trkpt>
      <trkpt lat="45.42797" lon="0.33193">
        <ele>96</ele>
        <time>2025-04-11T11:09:58Z</time>
      </trkpt>
      <trkpt lat="45.42793" lon="0.3326">
        <ele>97</ele>
        <time>2025-04-11T11:10:06Z</time>
      </trkpt>
      <trkpt lat="45.42793" lon="0.33285">
        <ele>97</ele>
        <time>2025-04-11T11:10:10Z</time>
      </trkpt>
      <trkpt lat="45.42805" lon="0.33393">
        <ele>99</ele>
        <time>2025-04-11T11:10:23Z</time>
      </trkpt>
      <trkpt lat="45.42806" lon="0.33429">
        <ele>100</ele>
        <time>2025-04-11T11:10:28Z</time>
      </trkpt>
      <trkpt lat="45.42806" lon="0.335">
        <ele>101</ele>
        <time>2025-04-11T11:10:37Z</time>
      </trkpt>
      <trkpt lat="45.42808" lon="0.3352">
        <ele>101</ele>
        <time>2025-04-11T11:10:39Z</time>
      </trkpt>
      <trkpt lat="45.42819" lon="0.33585">
        <ele>102</ele>
        <time>2025-04-11T11:10:47Z</time>
      </trkpt>
      <trkpt lat="45.42828" lon="0.33674">
        <ele>104</ele>
        <time>2025-04-11T11:10:59Z</time>
      </trkpt>
      <trkpt lat="45.42886" lon="0.33891">
        <ele>111</ele>
        <time>2025-04-11T11:11:28Z</time>
      </trkpt>
      <trkpt lat="45.4289" lon="0.33914">
        <ele>113</ele>
        <time>2025-04-11T11:11:31Z</time>
      </trkpt>
      <trkpt lat="45.4289" lon="0.33935">
        <ele>114</ele>
        <time>2025-04-11T11:11:33Z</time>
      </trkpt>
      <trkpt lat="45.42889" lon="0.33952">
        <ele>116</ele>
        <time>2025-04-11T11:11:35Z</time>
      </trkpt>
      <trkpt lat="45.42861" lon="0.34048">
        <ele>120</ele>
        <time>2025-04-11T11:11:48Z</time>
      </trkpt>
      <trkpt lat="45.42826" lon="0.34217">
        <ele>114</ele>
        <time>2025-04-11T11:12:10Z</time>
      </trkpt>
      <trkpt lat="45.42824" lon="0.34251">
        <ele>112</ele>
        <time>2025-04-11T11:12:15Z</time>
      </trkpt>
      <trkpt lat="45.42825" lon="0.34268">
        <ele>112</ele>
        <time>2025-04-11T11:12:17Z</time>
      </trkpt>
      <trkpt lat="45.42846" lon="0.34372">
        <ele>111</ele>
        <time>2025-04-11T11:12:30Z</time>
      </trkpt>
      <trkpt lat="45.42851" lon="0.34394">
        <ele>112</ele>
        <time>2025-04-11T11:12:33Z</time>
      </trkpt>
      <trkpt lat="45.42856" lon="0.34407">
        <ele>113</ele>
        <time>2025-04-11T11:12:35Z</time>
      </trkpt>
      <trkpt lat="45.42863" lon="0.34419">
        <ele>113</ele>
        <time>2025-04-11T11:12:37Z</time>
      </trkpt>
      <trkpt lat="45.42883" lon="0.3444">
        <ele>114</ele>
        <time>2025-04-11T11:12:41Z</time>
      </trkpt>
      <trkpt lat="45.42898" lon="0.34454">
        <ele>114</ele>
        <time>2025-04-11T11:12:45Z</time>
      </trkpt>
      <trkpt lat="45.42913" lon="0.34458">
        <ele>114</ele>
        <time>2025-04-11T11:12:47Z</time>
      </trkpt>
      <trkpt lat="45.42956" lon="0.34448">
        <ele>113</ele>
        <time>2025-04-11T11:12:55Z</time>
      </trkpt>
      <trkpt lat="45.42966" lon="0.3445">
        <ele>113</ele>
        <time>2025-04-11T11:12:57Z</time>
      </trkpt>
      <trkpt lat="45.42982" lon="0.34458">
        <ele>112</ele>
        <time>2025-04-11T11:13:00Z</time>
      </trkpt>
      <trkpt lat="45.42994" lon="0.34467">
        <ele>112</ele>
        <time>2025-04-11T11:13:02Z</time>
      </trkpt>
      <trkpt lat="45.43037" lon="0.34483">
        <ele>111</ele>
        <time>2025-04-11T11:13:10Z</time>
      </trkpt>
      <trkpt lat="45.43063" lon="0.34504">
        <ele>110</ele>
        <time>2025-04-11T11:13:16Z</time>
      </trkpt>
      <trkpt lat="45.43111" lon="0.34523">
        <ele>109</ele>
        <time>2025-04-11T11:13:24Z</time>
      </trkpt>
      <trkpt lat="45.43123" lon="0.34534">
        <ele>108</ele>
        <time>2025-04-11T11:13:27Z</time>
      </trkpt>
      <trkpt lat="45.43148" lon="0.34563">
        <ele>108</ele>
        <time>2025-04-11T11:13:33Z</time>
      </trkpt>
      <trkpt lat="45.43225" lon="0.34657">
        <ele>104</ele>
        <time>2025-04-11T11:13:51Z</time>
      </trkpt>
      <trkpt lat="45.43261" lon="0.34683">
        <ele>102</ele>
        <time>2025-04-11T11:13:58Z</time>
      </trkpt>
      <trkpt lat="45.43306" lon="0.34705">
        <ele>99</ele>
        <time>2025-04-11T11:14:06Z</time>
      </trkpt>
      <trkpt lat="45.43317" lon="0.34714">
        <ele>98</ele>
        <time>2025-04-11T11:14:09Z</time>
      </trkpt>
      <trkpt lat="45.43323" lon="0.34723">
        <ele>97</ele>
        <time>2025-04-11T11:14:10Z</time>
      </trkpt>
      <trkpt lat="45.43327" lon="0.34736">
        <ele>97</ele>
        <time>2025-04-11T11:14:12Z</time>
      </trkpt>
      <trkpt lat="45.43333" lon="0.34775">
        <ele>97</ele>
        <time>2025-04-11T11:14:17Z</time>
      </trkpt>
      <trkpt lat="45.43336" lon="0.34787">
        <ele>97</ele>
        <time>2025-04-11T11:14:18Z</time>
      </trkpt>
      <trkpt lat="45.43362" lon="0.34838">
        <ele>98</ele>
        <time>2025-04-11T11:14:26Z</time>
      </trkpt>
      <trkpt lat="45.43406" lon="0.34946">
        <ele>101</ele>
        <time>2025-04-11T11:14:42Z</time>
      </trkpt>
      <trkpt lat="45.43464" lon="0.35034">
        <ele>98</ele>
        <time>2025-04-11T11:14:57Z</time>
      </trkpt>
      <trkpt lat="45.43471" lon="0.35054">
        <ele>98</ele>
        <time>2025-04-11T11:15:00Z</time>
      </trkpt>
      <trkpt lat="45.4349" lon="0.35125">
        <ele>97</ele>
        <time>2025-04-11T11:15:09Z</time>
      </trkpt>
      <trkpt lat="45.43508" lon="0.35219">
        <ele>97</ele>
        <time>2025-04-11T11:15:21Z</time>
      </trkpt>
      <trkpt lat="45.43513" lon="0.35235">
        <ele>97</ele>
        <time>2025-04-11T11:15:24Z</time>
      </trkpt>
      <trkpt lat="45.43522" lon="0.35254">
        <ele>96</ele>
        <time>2025-04-11T11:15:27Z</time>
      </trkpt>
      <trkpt lat="45.43552" lon="0.35306">
        <ele>96</ele>
        <time>2025-04-11T11:15:35Z</time>
      </trkpt>
      <trkpt lat="45.43531" lon="0.35325">
        <ele>97</ele>
        <time>2025-04-11T11:15:39Z</time>
      </trkpt>
      <trkpt lat="45.4349" lon="0.35356">
        <ele>99</ele>
        <time>2025-04-11T11:15:48Z</time>
      </trkpt>
      <trkpt lat="45.43322" lon="0.35445">
        <ele>106</ele>
        <time>2025-04-11T11:16:20Z</time>
      </trkpt>
      <trkpt lat="45.43304" lon="0.3545">
        <ele>107</ele>
        <time>2025-04-11T11:16:23Z</time>
      </trkpt>
      <trkpt lat="45.43283" lon="0.35452">
        <ele>108</ele>
        <time>2025-04-11T11:16:27Z</time>
      </trkpt>
      <trkpt lat="45.43169" lon="0.35438">
        <ele>111</ele>
        <time>2025-04-11T11:16:47Z</time>
      </trkpt>
      <trkpt lat="45.43146" lon="0.35438">
        <ele>112</ele>
        <time>2025-04-11T11:16:51Z</time>
      </trkpt>
      <trkpt lat="45.43091" lon="0.35445">
        <ele>113</ele>
        <time>2025-04-11T11:17:01Z</time>
      </trkpt>
      <trkpt lat="45.43016" lon="0.35459">
        <ele>116</ele>
        <time>2025-04-11T11:17:14Z</time>
      </trkpt>
      <trkpt lat="45.42983" lon="0.35473">
        <ele>117</ele>
        <time>2025-04-11T11:17:20Z</time>
      </trkpt>
      <trkpt lat="45.42868" lon="0.3553">
        <ele>118</ele>
        <time>2025-04-11T11:17:42Z</time>
      </trkpt>
      <trkpt lat="45.42848" lon="0.35543">
        <ele>118</ele>
        <time>2025-04-11T11:17:46Z</time>
      </trkpt>
      <trkpt lat="45.42833" lon="0.35557">
        <ele>119</ele>
        <time>2025-04-11T11:17:49Z</time>
      </trkpt>
      <trkpt lat="45.42809" lon="0.35589">
        <ele>119</ele>
        <time>2025-04-11T11:17:55Z</time>
      </trkpt>
      <trkpt lat="45.42798" lon="0.3561">
        <ele>119</ele>
        <time>2025-04-11T11:17:58Z</time>
      </trkpt>
      <trkpt lat="45.42686" lon="0.35864">
        <ele>126</ele>
        <time>2025-04-11T11:18:36Z</time>
      </trkpt>
      <trkpt lat="45.42597" lon="0.36027">
        <ele>130</ele>
        <time>2025-04-11T11:19:02Z</time>
      </trkpt>
      <trkpt lat="45.42585" lon="0.36057">
        <ele>131</ele>
        <time>2025-04-11T11:19:06Z</time>
      </trkpt>
      <trkpt lat="45.42572" lon="0.361">
        <ele>131</ele>
        <time>2025-04-11T11:19:12Z</time>
      </trkpt>
      <trkpt lat="45.42547" lon="0.36193">
        <ele>131</ele>
        <time>2025-04-11T11:19:24Z</time>
      </trkpt>
      <trkpt lat="45.42529" lon="0.36253">
        <ele>130</ele>
        <time>2025-04-11T11:19:32Z</time>
      </trkpt>
      <trkpt lat="45.42511" lon="0.36295">
        <ele>128</ele>
        <time>2025-04-11T11:19:38Z</time>
      </trkpt>
      <trkpt lat="45.42495" lon="0.36322">
        <ele>127</ele>
        <time>2025-04-11T11:19:43Z</time>
      </trkpt>
      <trkpt lat="45.42318" lon="0.36554">
        <ele>118</ele>
        <time>2025-04-11T11:20:26Z</time>
      </trkpt>
      <trkpt lat="45.4227" lon="0.3662">
        <ele>115</ele>
        <time>2025-04-11T11:20:37Z</time>
      </trkpt>
      <trkpt lat="45.42259" lon="0.36641">
        <ele>115</ele>
        <time>2025-04-11T11:20:41Z</time>
      </trkpt>
      <trkpt lat="45.42241" lon="0.36689">
        <ele>114</ele>
        <time>2025-04-11T11:20:48Z</time>
      </trkpt>
      <trkpt lat="45.42206" lon="0.36841">
        <ele>107</ele>
        <time>2025-04-11T11:21:08Z</time>
      </trkpt>
      <trkpt lat="45.42197" lon="0.36839">
        <ele>107</ele>
        <time>2025-04-11T11:21:09Z</time>
      </trkpt>
      <trkpt lat="45.41947" lon="0.36876">
        <ele>105</ele>
        <time>2025-04-11T11:21:54Z</time>
      </trkpt>
      <trkpt lat="45.41911" lon="0.36876">
        <ele>105</ele>
        <time>2025-04-11T11:22:00Z</time>
      </trkpt>
      <trkpt lat="45.41778" lon="0.36844">
        <ele>104</ele>
        <time>2025-04-11T11:22:24Z</time>
      </trkpt>
      <trkpt lat="45.41747" lon="0.36843">
        <ele>104</ele>
        <time>2025-04-11T11:22:30Z</time>
      </trkpt>
      <trkpt lat="45.41623" lon="0.36863">
        <ele>103</ele>
        <time>2025-04-11T11:22:52Z</time>
      </trkpt>
      <trkpt lat="45.41586" lon="0.36864">
        <ele>103</ele>
        <time>2025-04-11T11:22:59Z</time>
      </trkpt>
      <trkpt lat="45.4155" lon="0.3686">
        <ele>104</ele>
        <time>2025-04-11T11:23:05Z</time>
      </trkpt>
      <trkpt lat="45.41446" lon="0.36824">
        <ele>105</ele>
        <time>2025-04-11T11:23:24Z</time>
      </trkpt>
      <trkpt lat="45.41418" lon="0.36828">
        <ele>106</ele>
        <time>2025-04-11T11:23:29Z</time>
      </trkpt>
      <trkpt lat="45.41388" lon="0.36842">
        <ele>106</ele>
        <time>2025-04-11T11:23:35Z</time>
      </trkpt>
      <trkpt lat="45.41149" lon="0.3697">
        <ele>105</ele>
        <time>2025-04-11T11:24:20Z</time>
      </trkpt>
      <trkpt lat="45.41118" lon="0.36993">
        <ele>106</ele>
        <time>2025-04-11T11:24:26Z</time>
      </trkpt>
      <trkpt lat="45.40948" lon="0.37156">
        <ele>104</ele>
        <time>2025-04-11T11:25:03Z</time>
      </trkpt>
      <trkpt lat="45.40924" lon="0.37172">
        <ele>103</ele>
        <time>2025-04-11T11:25:07Z</time>
      </trkpt>
      <trkpt lat="45.40898" lon="0.37181">
        <ele>103</ele>
        <time>2025-04-11T11:25:12Z</time>
      </trkpt>
      <trkpt lat="45.40545" lon="0.37243">
        <ele>104</ele>
        <time>2025-04-11T11:26:16Z</time>
      </trkpt>
      <trkpt lat="45.40503" lon="0.37245">
        <ele>104</ele>
        <time>2025-04-11T11:26:23Z</time>
      </trkpt>
      <trkpt lat="45.40471" lon="0.37238">
        <ele>104</ele>
        <time>2025-04-11T11:26:29Z</time>
      </trkpt>
      <trkpt lat="45.40352" lon="0.37188">
        <ele>104</ele>
        <time>2025-04-11T11:26:51Z</time>
      </trkpt>
      <trkpt lat="45.40322" lon="0.37183">
        <ele>104</ele>
        <time>2025-04-11T11:26:56Z</time>
      </trkpt>
      <trkpt lat="45.40293" lon="0.37189">
        <ele>105</ele>
        <time>2025-04-11T11:27:01Z</time>
      </trkpt>
      <trkpt lat="45.40208" lon="0.37236">
        <ele>107</ele>
        <time>2025-04-11T11:27:18Z</time>
      </trkpt>
      <trkpt lat="45.40046" lon="0.37332">
        <ele>114</ele>
        <time>2025-04-11T11:27:49Z</time>
      </trkpt>
      <trkpt lat="45.40014" lon="0.37339">
        <ele>116</ele>
        <time>2025-04-11T11:27:55Z</time>
      </trkpt>
      <trkpt lat="45.3988" lon="0.37339">
        <ele>118</ele>
        <time>2025-04-11T11:28:18Z</time>
      </trkpt>
      <trkpt lat="45.39846" lon="0.37344">
        <ele>118</ele>
        <time>2025-04-11T11:28:25Z</time>
      </trkpt>
      <trkpt lat="45.39733" lon="0.37381">
        <ele>118</ele>
        <time>2025-04-11T11:28:45Z</time>
      </trkpt>
      <trkpt lat="45.39676" lon="0.37396">
        <ele>119</ele>
        <time>2025-04-11T11:28:56Z</time>
      </trkpt>
      <trkpt lat="45.39642" lon="0.37402">
        <ele>119</ele>
        <time>2025-04-11T11:29:02Z</time>
      </trkpt>
      <trkpt lat="45.39515" lon="0.37416">
        <ele>121</ele>
        <time>2025-04-11T11:29:24Z</time>
      </trkpt>
      <trkpt lat="45.39481" lon="0.3741">
        <ele>121</ele>
        <time>2025-04-11T11:29:30Z</time>
      </trkpt>
      <trkpt lat="45.39472" lon="0.3741">
        <ele>121</ele>
        <time>2025-04-11T11:29:32Z</time>
      </trkpt>
      <trkpt lat="45.39446" lon="0.37402">
        <ele>120</ele>
        <time>2025-04-11T11:29:37Z</time>
      </trkpt>
      <trkpt lat="45.39424" lon="0.37399">
        <ele>120</ele>
        <time>2025-04-11T11:29:41Z</time>
      </trkpt>
      <trkpt lat="45.39299" lon="0.37396">
        <ele>118</ele>
        <time>2025-04-11T11:30:03Z</time>
      </trkpt>
      <trkpt lat="45.39099" lon="0.37399">
        <ele>122</ele>
        <time>2025-04-11T11:30:38Z</time>
      </trkpt>
      <trkpt lat="45.39068" lon="0.37394">
        <ele>123</ele>
        <time>2025-04-11T11:30:44Z</time>
      </trkpt>
      <trkpt lat="45.39036" lon="0.37385">
        <ele>123</ele>
        <time>2025-04-11T11:30:50Z</time>
      </trkpt>
      <trkpt lat="45.38841" lon="0.37334">
        <ele>130</ele>
        <time>2025-04-11T11:31:25Z</time>
      </trkpt>
      <trkpt lat="45.38733" lon="0.37291">
        <ele>135</ele>
        <time>2025-04-11T11:31:45Z</time>
      </trkpt>
      <trkpt lat="45.386" lon="0.3723">
        <ele>137</ele>
        <time>2025-04-11T11:32:10Z</time>
      </trkpt>
      <trkpt lat="45.38567" lon="0.37224">
        <ele>137</ele>
        <time>2025-04-11T11:32:16Z</time>
      </trkpt>
      <trkpt lat="45.38533" lon="0.37237">
        <ele>136</ele>
        <time>2025-04-11T11:32:22Z</time>
      </trkpt>
      <trkpt lat="45.38305" lon="0.37307">
        <ele>123</ele>
        <time>2025-04-11T11:33:04Z</time>
      </trkpt>
      <trkpt lat="45.38274" lon="0.37309">
        <ele>122</ele>
        <time>2025-04-11T11:33:09Z</time>
      </trkpt>
      <trkpt lat="45.38243" lon="0.37287">
        <ele>121</ele>
        <time>2025-04-11T11:33:15Z</time>
      </trkpt>
      <trkpt lat="45.37974" lon="0.37001">
        <ele>111</ele>
        <time>2025-04-11T11:34:15Z</time>
      </trkpt>
      <trkpt lat="45.37803" lon="0.36862">
        <ele>115</ele>
        <time>2025-04-11T11:34:50Z</time>
      </trkpt>
      <trkpt lat="45.37766" lon="0.36831">
        <ele>114</ele>
        <time>2025-04-11T11:34:58Z</time>
      </trkpt>
      <trkpt lat="45.37721" lon="0.36787">
        <ele>113</ele>
        <time>2025-04-11T11:35:07Z</time>
      </trkpt>
      <trkpt lat="45.37694" lon="0.3675">
        <ele>111</ele>
        <time>2025-04-11T11:35:14Z</time>
      </trkpt>
      <trkpt lat="45.37653" lon="0.36679">
        <ele>108</ele>
        <time>2025-04-11T11:35:26Z</time>
      </trkpt>
      <trkpt lat="45.37645" lon="0.36662">
        <ele>108</ele>
        <time>2025-04-11T11:35:28Z</time>
      </trkpt>
      <trkpt lat="45.37614" lon="0.36572">
        <ele>105</ele>
        <time>2025-04-11T11:35:41Z</time>
      </trkpt>
      <trkpt lat="45.37605" lon="0.36552">
        <ele>104</ele>
        <time>2025-04-11T11:35:44Z</time>
      </trkpt>
      <trkpt lat="45.37586" lon="0.36518">
        <ele>103</ele>
        <time>2025-04-11T11:35:49Z</time>
      </trkpt>
      <trkpt lat="45.37538" lon="0.36442">
        <ele>103</ele>
        <time>2025-04-11T11:36:02Z</time>
      </trkpt>
      <trkpt lat="45.37518" lon="0.36415">
        <ele>102</ele>
        <time>2025-04-11T11:36:07Z</time>
      </trkpt>
      <trkpt lat="45.37493" lon="0.36386">
        <ele>102</ele>
        <time>2025-04-11T11:36:12Z</time>
      </trkpt>
      <trkpt lat="45.37428" lon="0.36321">
        <ele>104</ele>
        <time>2025-04-11T11:36:27Z</time>
      </trkpt>
      <trkpt lat="45.3726" lon="0.36182">
        <ele>103</ele>
        <time>2025-04-11T11:37:01Z</time>
      </trkpt>
      <trkpt lat="45.3716" lon="0.36091">
        <ele>100</ele>
        <time>2025-04-11T11:37:22Z</time>
      </trkpt>
      <trkpt lat="45.36967" lon="0.35931">
        <ele>102</ele>
        <time>2025-04-11T11:38:02Z</time>
      </trkpt>
      <trkpt lat="45.36945" lon="0.35906">
        <ele>101</ele>
        <time>2025-04-11T11:38:07Z</time>
      </trkpt>
      <trkpt lat="45.36932" lon="0.3588">
        <ele>101</ele>
        <time>2025-04-11T11:38:11Z</time>
      </trkpt>
      <trkpt lat="45.36924" lon="0.35852">
        <ele>100</ele>
        <time>2025-04-11T11:38:15Z</time>
      </trkpt>
      <trkpt lat="45.36923" lon="0.35818">
        <ele>100</ele>
        <time>2025-04-11T11:38:19Z</time>
      </trkpt>
      <trkpt lat="45.36934" lon="0.35482">
        <ele>107</ele>
        <time>2025-04-11T11:39:01Z</time>
      </trkpt>
      <trkpt lat="45.36934" lon="0.35418">
        <ele>109</ele>
        <time>2025-04-11T11:39:09Z</time>
      </trkpt>
      <trkpt lat="45.36926" lon="0.35351">
        <ele>112</ele>
        <time>2025-04-11T11:39:18Z</time>
      </trkpt>
      <trkpt lat="45.36908" lon="0.35244">
        <ele>121</ele>
        <time>2025-04-11T11:39:31Z</time>
      </trkpt>
      <trkpt lat="45.36888" lon="0.35156">
        <ele>132</ele>
        <time>2025-04-11T11:39:43Z</time>
      </trkpt>
      <trkpt lat="45.36874" lon="0.35068">
        <ele>138</ele>
        <time>2025-04-11T11:39:54Z</time>
      </trkpt>
      <trkpt lat="45.36818" lon="0.35029">
        <ele>137</ele>
        <time>2025-04-11T11:40:05Z</time>
      </trkpt>
      <trkpt lat="45.36778" lon="0.34991">
        <ele>135</ele>
        <time>2025-04-11T11:40:14Z</time>
      </trkpt>
      <trkpt lat="45.36732" lon="0.34912">
        <ele>130</ele>
        <time>2025-04-11T11:40:27Z</time>
      </trkpt>
      <trkpt lat="45.36693" lon="0.34855">
        <ele>126</ele>
        <time>2025-04-11T11:40:37Z</time>
      </trkpt>
      <trkpt lat="45.36664" lon="0.34819">
        <ele>123</ele>
        <time>2025-04-11T11:40:43Z</time>
      </trkpt>
      <trkpt lat="45.3665" lon="0.34807">
        <ele>122</ele>
        <time>2025-04-11T11:40:46Z</time>
      </trkpt>
      <trkpt lat="45.36608" lon="0.34786">
        <ele>119</ele>
        <time>2025-04-11T11:40:54Z</time>
      </trkpt>
      <trkpt lat="45.3636" lon="0.34671">
        <ele>103</ele>
        <time>2025-04-11T11:41:41Z</time>
      </trkpt>
      <trkpt lat="45.36084" lon="0.34339">
        <ele>118</ele>
        <time>2025-04-11T11:42:45Z</time>
      </trkpt>
      <trkpt lat="45.36042" lon="0.34279">
        <ele>120</ele>
        <time>2025-04-11T11:42:56Z</time>
      </trkpt>
      <trkpt lat="45.3587" lon="0.34002">
        <ele>101</ele>
        <time>2025-04-11T11:43:42Z</time>
      </trkpt>
      <trkpt lat="45.35835" lon="0.33953">
        <ele>102</ele>
        <time>2025-04-11T11:43:51Z</time>
      </trkpt>
      <trkpt lat="45.35829" lon="0.33949">
        <ele>102</ele>
        <time>2025-04-11T11:43:52Z</time>
      </trkpt>
      <trkpt lat="45.35813" lon="0.33941">
        <ele>103</ele>
        <time>2025-04-11T11:43:55Z</time>
      </trkpt>
      <trkpt lat="45.35793" lon="0.33937">
        <ele>104</ele>
        <time>2025-04-11T11:43:58Z</time>
      </trkpt>
      <trkpt lat="45.35784" lon="0.33938">
        <ele>105</ele>
        <time>2025-04-11T11:44:00Z</time>
      </trkpt>
      <trkpt lat="45.3578" lon="0.33895">
        <ele>106</ele>
        <time>2025-04-11T11:44:05Z</time>
      </trkpt>
      <trkpt lat="45.35782" lon="0.33878">
        <ele>106</ele>
        <time>2025-04-11T11:44:08Z</time>
      </trkpt>
      <trkpt lat="45.35774" lon="0.33875">
        <ele>106</ele>
        <time>2025-04-11T11:44:09Z</time>
      </trkpt>
      <trkpt lat="45.35749" lon="0.3384">
        <ele>108</ele>
        <time>2025-04-11T11:44:15Z</time>
      </trkpt>
      <trkpt lat="45.35734" lon="0.33831">
        <ele>108</ele>
        <time>2025-04-11T11:44:18Z</time>
      </trkpt>
      <trkpt lat="45.35711" lon="0.33824">
        <ele>109</ele>
        <time>2025-04-11T11:44:22Z</time>
      </trkpt>
      <trkpt lat="45.35661" lon="0.33821">
        <ele>110</ele>
        <time>2025-04-11T11:44:31Z</time>
      </trkpt>
      <trkpt lat="45.3565" lon="0.33817">
        <ele>109</ele>
        <time>2025-04-11T11:44:33Z</time>
      </trkpt>
      <trkpt lat="45.35578" lon="0.33778">
        <ele>108</ele>
        <time>2025-04-11T11:44:47Z</time>
      </trkpt>
      <trkpt lat="45.35521" lon="0.33739">
        <ele>109</ele>
        <time>2025-04-11T11:44:58Z</time>
      </trkpt>
      <trkpt lat="45.35487" lon="0.33713">
        <ele>109</ele>
        <time>2025-04-11T11:45:05Z</time>
      </trkpt>
      <trkpt lat="45.35415" lon="0.33639">
        <ele>110</ele>
        <time>2025-04-11T11:45:21Z</time>
      </trkpt>
      <trkpt lat="45.35386" lon="0.33587">
        <ele>112</ele>
        <time>2025-04-11T11:45:29Z</time>
      </trkpt>
      <trkpt lat="45.35378" lon="0.33528">
        <ele>113</ele>
        <time>2025-04-11T11:45:37Z</time>
      </trkpt>
      <trkpt lat="45.35362" lon="0.33483">
        <ele>113</ele>
        <time>2025-04-11T11:45:43Z</time>
      </trkpt>
      <trkpt lat="45.35302" lon="0.33436">
        <ele>114</ele>
        <time>2025-04-11T11:45:55Z</time>
      </trkpt>
      <trkpt lat="45.35232" lon="0.33368">
        <ele>118</ele>
        <time>2025-04-11T11:46:10Z</time>
      </trkpt>
      <trkpt lat="45.35164" lon="0.33333">
        <ele>117</ele>
        <time>2025-04-11T11:46:23Z</time>
      </trkpt>
      <trkpt lat="45.35121" lon="0.33173">
        <ele>123</ele>
        <time>2025-04-11T11:46:45Z</time>
      </trkpt>
      <trkpt lat="45.35049" lon="0.32967">
        <ele>138</ele>
        <time>2025-04-11T11:47:13Z</time>
      </trkpt>
      <trkpt lat="45.34989" lon="0.32761">
        <ele>151</ele>
        <time>2025-04-11T11:47:41Z</time>
      </trkpt>
      <trkpt lat="45.34955" lon="0.32686">
        <ele>154</ele>
        <time>2025-04-11T11:47:52Z</time>
      </trkpt>
      <trkpt lat="45.3494" lon="0.32615">
        <ele>158</ele>
        <time>2025-04-11T11:48:02Z</time>
      </trkpt>
      <trkpt lat="45.34889" lon="0.3246">
        <ele>160</ele>
        <time>2025-04-11T11:48:23Z</time>
      </trkpt>
      <trkpt lat="45.34842" lon="0.3242">
        <ele>159</ele>
        <time>2025-04-11T11:48:33Z</time>
      </trkpt>
      <trkpt lat="45.34798" lon="0.32354">
        <ele>159</ele>
        <time>2025-04-11T11:48:44Z</time>
      </trkpt>
      <trkpt lat="45.3475" lon="0.32255">
        <ele>165</ele>
        <time>2025-04-11T11:48:59Z</time>
      </trkpt>
      <trkpt lat="45.34717" lon="0.32221">
        <ele>168</ele>
        <time>2025-04-11T11:49:06Z</time>
      </trkpt>
      <trkpt lat="45.34686" lon="0.32216">
        <ele>170</ele>
        <time>2025-04-11T11:49:12Z</time>
      </trkpt>
      <trkpt lat="45.34646" lon="0.32226">
        <ele>171</ele>
        <time>2025-04-11T11:49:19Z</time>
      </trkpt>
      <trkpt lat="45.34536" lon="0.32225">
        <ele>171</ele>
        <time>2025-04-11T11:49:39Z</time>
      </trkpt>
      <trkpt lat="45.34362" lon="0.32213">
        <ele>180</ele>
        <time>2025-04-11T11:50:10Z</time>
      </trkpt>
      <trkpt lat="45.34349" lon="0.32208">
        <ele>180</ele>
        <time>2025-04-11T11:50:12Z</time>
      </trkpt>
      <trkpt lat="45.34299" lon="0.32096">
        <ele>175</ele>
        <time>2025-04-11T11:50:29Z</time>
      </trkpt>
      <trkpt lat="45.34267" lon="0.32159">
        <ele>175</ele>
        <time>2025-04-11T11:50:38Z</time>
      </trkpt>
      <trkpt lat="45.34265" lon="0.32152">
        <ele>175</ele>
        <time>2025-04-11T11:50:39Z</time>
      </trkpt>
      <trkpt lat="45.34264" lon="0.32098">
        <ele>174</ele>
        <time>2025-04-11T11:50:46Z</time>
      </trkpt>
      <trkpt lat="45.34262" lon="0.32079">
        <ele>174</ele>
        <time>2025-04-11T11:50:49Z</time>
      </trkpt>
      <trkpt lat="45.34258" lon="0.32057">
        <ele>174</ele>
        <time>2025-04-11T11:50:51Z</time>
      </trkpt>
      <trkpt lat="45.34251" lon="0.32035">
        <ele>174</ele>
        <time>2025-04-11T11:50:54Z</time>
      </trkpt>
      <trkpt lat="45.34222" lon="0.31972">
        <ele>170</ele>
        <time>2025-04-11T11:51:04Z</time>
      </trkpt>
      <trkpt lat="45.34208" lon="0.31949">
        <ele>169</ele>
        <time>2025-04-11T11:51:08Z</time>
      </trkpt>
      <trkpt lat="45.34194" lon="0.31932">
        <ele>168</ele>
        <time>2025-04-11T11:51:11Z</time>
      </trkpt>
      <trkpt lat="45.3418" lon="0.3192">
        <ele>168</ele>
        <time>2025-04-11T11:51:14Z</time>
      </trkpt>
      <trkpt lat="45.34158" lon="0.31905">
        <ele>167</ele>
        <time>2025-04-11T11:51:18Z</time>
      </trkpt>
      <trkpt lat="45.34038" lon="0.31852">
        <ele>163</ele>
        <time>2025-04-11T11:51:41Z</time>
      </trkpt>
      <trkpt lat="45.33916" lon="0.31802">
        <ele>163</ele>
        <time>2025-04-11T11:52:03Z</time>
      </trkpt>
      <trkpt lat="45.33762" lon="0.31731">
        <ele>160</ele>
        <time>2025-04-11T11:52:32Z</time>
      </trkpt>
      <trkpt lat="45.33495" lon="0.31565">
        <ele>153</ele>
        <time>2025-04-11T11:53:24Z</time>
      </trkpt>
      <trkpt lat="45.33474" lon="0.31556">
        <ele>153</ele>
        <time>2025-04-11T11:53:28Z</time>
      </trkpt>
      <trkpt lat="45.33455" lon="0.31552">
        <ele>152</ele>
        <time>2025-04-11T11:53:31Z</time>
      </trkpt>
      <trkpt lat="45.33276" lon="0.31553">
        <ele>145</ele>
        <time>2025-04-11T11:54:03Z</time>
      </trkpt>
      <trkpt lat="45.33199" lon="0.31547">
        <ele>143</ele>
        <time>2025-04-11T11:54:17Z</time>
      </trkpt>
      <trkpt lat="45.3314" lon="0.31529">
        <ele>143</ele>
        <time>2025-04-11T11:54:27Z</time>
      </trkpt>
      <trkpt lat="45.33096" lon="0.31507">
        <ele>144</ele>
        <time>2025-04-11T11:54:36Z</time>
      </trkpt>
      <trkpt lat="45.33067" lon="0.31483">
        <ele>143</ele>
        <time>2025-04-11T11:54:42Z</time>
      </trkpt>
      <trkpt lat="45.32875" lon="0.31284">
        <ele>135</ele>
        <time>2025-04-11T11:55:24Z</time>
      </trkpt>
      <trkpt lat="45.32855" lon="0.31271">
        <ele>134</ele>
        <time>2025-04-11T11:55:28Z</time>
      </trkpt>
      <trkpt lat="45.32817" lon="0.31263">
        <ele>133</ele>
        <time>2025-04-11T11:55:35Z</time>
      </trkpt>
      <trkpt lat="45.32802" lon="0.31254">
        <ele>133</ele>
        <time>2025-04-11T11:55:38Z</time>
      </trkpt>
      <trkpt lat="45.32717" lon="0.31177">
        <ele>135</ele>
        <time>2025-04-11T11:55:56Z</time>
      </trkpt>
      <trkpt lat="45.32705" lon="0.31171">
        <ele>135</ele>
        <time>2025-04-11T11:55:58Z</time>
      </trkpt>
      <trkpt lat="45.32657" lon="0.31158">
        <ele>136</ele>
        <time>2025-04-11T11:56:06Z</time>
      </trkpt>
      <trkpt lat="45.3264" lon="0.31151">
        <ele>137</ele>
        <time>2025-04-11T11:56:10Z</time>
      </trkpt>
      <trkpt lat="45.32619" lon="0.31138">
        <ele>137</ele>
        <time>2025-04-11T11:56:14Z</time>
      </trkpt>
      <trkpt lat="45.32552" lon="0.31074">
        <ele>141</ele>
        <time>2025-04-11T11:56:28Z</time>
      </trkpt>
      <trkpt lat="45.32489" lon="0.31005">
        <ele>144</ele>
        <time>2025-04-11T11:56:42Z</time>
      </trkpt>
      <trkpt lat="45.32441" lon="0.30936">
        <ele>144</ele>
        <time>2025-04-11T11:56:54Z</time>
      </trkpt>
      <trkpt lat="45.32358" lon="0.30808">
        <ele>143</ele>
        <time>2025-04-11T11:57:16Z</time>
      </trkpt>
      <trkpt lat="45.32291" lon="0.30713">
        <ele>140</ele>
        <time>2025-04-11T11:57:33Z</time>
      </trkpt>
      <trkpt lat="45.32238" lon="0.30654">
        <ele>141</ele>
        <time>2025-04-11T11:57:45Z</time>
      </trkpt>
      <trkpt lat="45.32213" lon="0.30631">
        <ele>140</ele>
        <time>2025-04-11T11:57:50Z</time>
      </trkpt>
      <trkpt lat="45.32189" lon="0.30615">
        <ele>140</ele>
        <time>2025-04-11T11:57:55Z</time>
      </trkpt>
      <trkpt lat="45.32161" lon="0.30602">
        <ele>140</ele>
        <time>2025-04-11T11:58:00Z</time>
      </trkpt>
      <trkpt lat="45.32065" lon="0.30564">
        <ele>136</ele>
        <time>2025-04-11T11:58:18Z</time>
      </trkpt>
      <trkpt lat="45.32057" lon="0.30568">
        <ele>137</ele>
        <time>2025-04-11T11:58:19Z</time>
      </trkpt>
      <trkpt lat="45.32049" lon="0.30566">
        <ele>136</ele>
        <time>2025-04-11T11:58:21Z</time>
      </trkpt>
      <trkpt lat="45.3195" lon="0.30531">
        <ele>137</ele>
        <time>2025-04-11T11:58:39Z</time>
      </trkpt>
      <trkpt lat="45.31943" lon="0.30531">
        <ele>137</ele>
        <time>2025-04-11T11:58:40Z</time>
      </trkpt>
      <trkpt lat="45.31931" lon="0.30537">
        <ele>137</ele>
        <time>2025-04-11T11:58:43Z</time>
      </trkpt>
      <trkpt lat="45.31897" lon="0.30577">
        <ele>135</ele>
        <time>2025-04-11T11:58:50Z</time>
      </trkpt>
      <trkpt lat="45.31884" lon="0.30582">
        <ele>134</ele>
        <time>2025-04-11T11:58:53Z</time>
      </trkpt>
      <trkpt lat="45.31842" lon="0.30577">
        <ele>132</ele>
        <time>2025-04-11T11:59:00Z</time>
      </trkpt>
      <trkpt lat="45.31804" lon="0.30586">
        <ele>127</ele>
        <time>2025-04-11T11:59:07Z</time>
      </trkpt>
      <trkpt lat="45.31781" lon="0.30601">
        <ele>123</ele>
        <time>2025-04-11T11:59:12Z</time>
      </trkpt>
      <trkpt lat="45.31728" lon="0.30653">
        <ele>114</ele>
        <time>2025-04-11T11:59:23Z</time>
      </trkpt>
      <trkpt lat="45.31684" lon="0.30712">
        <ele>110</ele>
        <time>2025-04-11T11:59:34Z</time>
      </trkpt>
      <trkpt lat="45.31669" lon="0.30727">
        <ele>109</ele>
        <time>2025-04-11T11:59:37Z</time>
      </trkpt>
      <trkpt lat="45.3165" lon="0.30732">
        <ele>108</ele>
        <time>2025-04-11T11:59:41Z</time>
      </trkpt>
      <trkpt lat="45.31629" lon="0.30745">
        <ele>106</ele>
        <time>2025-04-11T11:59:45Z</time>
      </trkpt>
      <trkpt lat="45.31504" lon="0.30803">
        <ele>98</ele>
        <time>2025-04-11T12:00:08Z</time>
      </trkpt>
      <trkpt lat="45.31419" lon="0.30826">
        <ele>98</ele>
        <time>2025-04-11T12:00:23Z</time>
      </trkpt>
      <trkpt lat="45.31411" lon="0.30833">
        <ele>98</ele>
        <time>2025-04-11T12:00:25Z</time>
      </trkpt>
      <trkpt lat="45.31404" lon="0.3085">
        <ele>97</ele>
        <time>2025-04-11T12:00:28Z</time>
      </trkpt>
      <trkpt lat="45.31406" lon="0.30874">
        <ele>97</ele>
        <time>2025-04-11T12:00:31Z</time>
      </trkpt>
      <trkpt lat="45.31425" lon="0.30961">
        <ele>95</ele>
        <time>2025-04-11T12:00:42Z</time>
      </trkpt>
      <trkpt lat="45.31423" lon="0.30983">
        <ele>94</ele>
        <time>2025-04-11T12:00:45Z</time>
      </trkpt>
      <trkpt lat="45.31417" lon="0.31001">
        <ele>93</ele>
        <time>2025-04-11T12:00:47Z</time>
      </trkpt>
      <trkpt lat="45.31404" lon="0.31019">
        <ele>91</ele>
        <time>2025-04-11T12:00:50Z</time>
      </trkpt>
      <trkpt lat="45.31363" lon="0.3106">
        <ele>88</ele>
        <time>2025-04-11T12:00:59Z</time>
      </trkpt>
      <trkpt lat="45.31322" lon="0.31112">
        <ele>85</ele>
        <time>2025-04-11T12:01:09Z</time>
      </trkpt>
      <trkpt lat="45.31293" lon="0.31155">
        <ele>82</ele>
        <time>2025-04-11T12:01:17Z</time>
      </trkpt>
      <trkpt lat="45.31203" lon="0.31287">
        <ele>73</ele>
        <time>2025-04-11T12:01:40Z</time>
      </trkpt>
      <trkpt lat="45.31174" lon="0.31318">
        <ele>71</ele>
        <time>2025-04-11T12:01:46Z</time>
      </trkpt>
      <trkpt lat="45.31149" lon="0.31335">
        <ele>70</ele>
        <time>2025-04-11T12:01:51Z</time>
      </trkpt>
      <trkpt lat="45.31103" lon="0.31366">
        <ele>68</ele>
        <time>2025-04-11T12:02:00Z</time>
      </trkpt>
      <trkpt lat="45.31093" lon="0.31374">
        <ele>68</ele>
        <time>2025-04-11T12:02:02Z</time>
      </trkpt>
      <trkpt lat="45.30974" lon="0.31462">
        <ele>67</ele>
        <time>2025-04-11T12:02:26Z</time>
      </trkpt>
      <trkpt lat="45.30948" lon="0.31476">
        <ele>68</ele>
        <time>2025-04-11T12:02:31Z</time>
      </trkpt>
      <trkpt lat="45.3093" lon="0.31478">
        <ele>69</ele>
        <time>2025-04-11T12:02:34Z</time>
      </trkpt>
      <trkpt lat="45.30911" lon="0.31471">
        <ele>70</ele>
        <time>2025-04-11T12:02:38Z</time>
      </trkpt>
      <trkpt lat="45.30884" lon="0.31449">
        <ele>70</ele>
        <time>2025-04-11T12:02:43Z</time>
      </trkpt>
      <trkpt lat="45.30852" lon="0.31419">
        <ele>69</ele>
        <time>2025-04-11T12:02:50Z</time>
      </trkpt>
      <trkpt lat="45.30831" lon="0.31407">
        <ele>69</ele>
        <time>2025-04-11T12:02:54Z</time>
      </trkpt>
      <trkpt lat="45.30801" lon="0.31399">
        <ele>70</ele>
        <time>2025-04-11T12:02:59Z</time>
      </trkpt>
      <trkpt lat="45.30598" lon="0.31393">
        <ele>79</ele>
        <time>2025-04-11T12:03:36Z</time>
      </trkpt>
      <trkpt lat="45.30443" lon="0.31379">
        <ele>88</ele>
        <time>2025-04-11T12:04:03Z</time>
      </trkpt>
      <trkpt lat="45.30429" lon="0.3137">
        <ele>90</ele>
        <time>2025-04-11T12:04:06Z</time>
      </trkpt>
      <trkpt lat="45.30418" lon="0.31356">
        <ele>91</ele>
        <time>2025-04-11T12:04:09Z</time>
      </trkpt>
      <trkpt lat="45.30412" lon="0.31333">
        <ele>93</ele>
        <time>2025-04-11T12:04:12Z</time>
      </trkpt>
      <trkpt lat="45.30407" lon="0.3128">
        <ele>94</ele>
        <time>2025-04-11T12:04:18Z</time>
      </trkpt>
      <trkpt lat="45.30398" lon="0.31252">
        <ele>95</ele>
        <time>2025-04-11T12:04:22Z</time>
      </trkpt>
      <trkpt lat="45.30386" lon="0.31237">
        <ele>96</ele>
        <time>2025-04-11T12:04:25Z</time>
      </trkpt>
      <trkpt lat="45.30368" lon="0.31224">
        <ele>97</ele>
        <time>2025-04-11T12:04:29Z</time>
      </trkpt>
      <trkpt lat="45.30347" lon="0.31218">
        <ele>99</ele>
        <time>2025-04-11T12:04:32Z</time>
      </trkpt>
      <trkpt lat="45.30322" lon="0.31217">
        <ele>101</ele>
        <time>2025-04-11T12:04:37Z</time>
      </trkpt>
      <trkpt lat="45.30301" lon="0.31223">
        <ele>102</ele>
        <time>2025-04-11T12:04:41Z</time>
      </trkpt>
      <trkpt lat="45.3028" lon="0.31237">
        <ele>103</ele>
        <time>2025-04-11T12:04:45Z</time>
      </trkpt>
      <trkpt lat="45.30237" lon="0.31288">
        <ele>108</ele>
        <time>2025-04-11T12:04:55Z</time>
      </trkpt>
      <trkpt lat="45.30213" lon="0.31314">
        <ele>110</ele>
        <time>2025-04-11T12:05:00Z</time>
      </trkpt>
      <trkpt lat="45.3006" lon="0.31427">
        <ele>124</ele>
        <time>2025-04-11T12:05:31Z</time>
      </trkpt>
      <trkpt lat="45.30012" lon="0.31447">
        <ele>125</ele>
        <time>2025-04-11T12:05:40Z</time>
      </trkpt>
      <trkpt lat="45.2997" lon="0.31459">
        <ele>124</ele>
        <time>2025-04-11T12:05:47Z</time>
      </trkpt>
      <trkpt lat="45.29941" lon="0.31464">
        <ele>124</ele>
        <time>2025-04-11T12:05:53Z</time>
      </trkpt>
      <trkpt lat="45.29851" lon="0.31461">
        <ele>126</ele>
        <time>2025-04-11T12:06:09Z</time>
      </trkpt>
      <trkpt lat="45.29819" lon="0.31455">
        <ele>127</ele>
        <time>2025-04-11T12:06:14Z</time>
      </trkpt>
      <trkpt lat="45.29636" lon="0.31396">
        <ele>134</ele>
        <time>2025-04-11T12:06:48Z</time>
      </trkpt>
      <trkpt lat="45.29608" lon="0.31383">
        <ele>135</ele>
        <time>2025-04-11T12:06:53Z</time>
      </trkpt>
      <trkpt lat="45.29464" lon="0.31287">
        <ele>124</ele>
        <time>2025-04-11T12:07:21Z</time>
      </trkpt>
      <trkpt lat="45.29441" lon="0.31269">
        <ele>122</ele>
        <time>2025-04-11T12:07:26Z</time>
      </trkpt>
      <trkpt lat="45.29411" lon="0.31233">
        <ele>120</ele>
        <time>2025-04-11T12:07:33Z</time>
      </trkpt>
      <trkpt lat="45.29393" lon="0.31202">
        <ele>119</ele>
        <time>2025-04-11T12:07:38Z</time>
      </trkpt>
      <trkpt lat="45.29373" lon="0.31146">
        <ele>117</ele>
        <time>2025-04-11T12:07:46Z</time>
      </trkpt>
      <trkpt lat="45.29356" lon="0.31084">
        <ele>113</ele>
        <time>2025-04-11T12:07:54Z</time>
      </trkpt>
      <trkpt lat="45.29352" lon="0.31047">
        <ele>112</ele>
        <time>2025-04-11T12:07:59Z</time>
      </trkpt>
      <trkpt lat="45.29353" lon="0.30952">
        <ele>111</ele>
        <time>2025-04-11T12:08:11Z</time>
      </trkpt>
      <trkpt lat="45.29351" lon="0.30913">
        <ele>110</ele>
        <time>2025-04-11T12:08:16Z</time>
      </trkpt>
      <trkpt lat="45.29336" lon="0.3084">
        <ele>107</ele>
        <time>2025-04-11T12:08:25Z</time>
      </trkpt>
      <trkpt lat="45.29327" lon="0.30826">
        <ele>106</ele>
        <time>2025-04-11T12:08:27Z</time>
      </trkpt>
      <trkpt lat="45.29316" lon="0.30822">
        <ele>105</ele>
        <time>2025-04-11T12:08:30Z</time>
      </trkpt>
      <trkpt lat="45.29269" lon="0.30844">
        <ele>103</ele>
        <time>2025-04-11T12:08:38Z</time>
      </trkpt>
      <trkpt lat="45.29254" lon="0.30847">
        <ele>102</ele>
        <time>2025-04-11T12:08:41Z</time>
      </trkpt>
      <trkpt lat="45.29239" lon="0.30843">
        <ele>103</ele>
        <time>2025-04-11T12:08:44Z</time>
      </trkpt>
      <trkpt lat="45.29216" lon="0.30822">
        <ele>104</ele>
        <time>2025-04-11T12:08:49Z</time>
      </trkpt>
      <trkpt lat="45.29202" lon="0.30819">
        <ele>105</ele>
        <time>2025-04-11T12:08:51Z</time>
      </trkpt>
      <trkpt lat="45.29187" lon="0.30824">
        <ele>107</ele>
        <time>2025-04-11T12:08:54Z</time>
      </trkpt>
      <trkpt lat="45.2914" lon="0.30856">
        <ele>111</ele>
        <time>2025-04-11T12:09:03Z</time>
      </trkpt>
      <trkpt lat="45.29095" lon="0.30881">
        <ele>111</ele>
        <time>2025-04-11T12:09:12Z</time>
      </trkpt>
      <trkpt lat="45.29043" lon="0.30903">
        <ele>111</ele>
        <time>2025-04-11T12:09:21Z</time>
      </trkpt>
      <trkpt lat="45.28991" lon="0.30921">
        <ele>112</ele>
        <time>2025-04-11T12:09:31Z</time>
      </trkpt>
      <trkpt lat="45.28941" lon="0.30931">
        <ele>113</ele>
        <time>2025-04-11T12:09:40Z</time>
      </trkpt>
      <trkpt lat="45.28908" lon="0.30934">
        <ele>115</ele>
        <time>2025-04-11T12:09:46Z</time>
      </trkpt>
      <trkpt lat="45.28893" lon="0.30931">
        <ele>115</ele>
        <time>2025-04-11T12:09:48Z</time>
      </trkpt>
      <trkpt lat="45.2888" lon="0.30918">
        <ele>115</ele>
        <time>2025-04-11T12:09:51Z</time>
      </trkpt>
      <trkpt lat="45.28874" lon="0.309">
        <ele>115</ele>
        <time>2025-04-11T12:09:54Z</time>
      </trkpt>
      <trkpt lat="45.28841" lon="0.30906">
        <ele>117</ele>
        <time>2025-04-11T12:10:00Z</time>
      </trkpt>
      <trkpt lat="45.2881" lon="0.30893">
        <ele>118</ele>
        <time>2025-04-11T12:10:05Z</time>
      </trkpt>
      <trkpt lat="45.28804" lon="0.30896">
        <ele>118</ele>
        <time>2025-04-11T12:10:07Z</time>
      </trkpt>
      <trkpt lat="45.2879" lon="0.30908">
        <ele>119</ele>
        <time>2025-04-11T12:10:09Z</time>
      </trkpt>
      <trkpt lat="45.28783" lon="0.3091">
        <ele>119</ele>
        <time>2025-04-11T12:10:11Z</time>
      </trkpt>
      <trkpt lat="45.28764" lon="0.30907">
        <ele>120</ele>
        <time>2025-04-11T12:10:14Z</time>
      </trkpt>
      <trkpt lat="45.28733" lon="0.3088">
        <ele>122</ele>
        <time>2025-04-11T12:10:21Z</time>
      </trkpt>
      <trkpt lat="45.28683" lon="0.30857">
        <ele>125</ele>
        <time>2025-04-11T12:10:30Z</time>
      </trkpt>
      <trkpt lat="45.28628" lon="0.30855">
        <ele>126</ele>
        <time>2025-04-11T12:10:40Z</time>
      </trkpt>
      <trkpt lat="45.28607" lon="0.30862">
        <ele>127</ele>
        <time>2025-04-11T12:10:44Z</time>
      </trkpt>
      <trkpt lat="45.28591" lon="0.30876">
        <ele>127</ele>
        <time>2025-04-11T12:10:47Z</time>
      </trkpt>
      <trkpt lat="45.28583" lon="0.30887">
        <ele>128</ele>
        <time>2025-04-11T12:10:49Z</time>
      </trkpt>
      <trkpt lat="45.28576" lon="0.30902">
        <ele>128</ele>
        <time>2025-04-11T12:10:51Z</time>
      </trkpt>
      <trkpt lat="45.28571" lon="0.30918">
        <ele>128</ele>
        <time>2025-04-11T12:10:53Z</time>
      </trkpt>
      <trkpt lat="45.28566" lon="0.30968">
        <ele>128</ele>
        <time>2025-04-11T12:11:00Z</time>
      </trkpt>
      <trkpt lat="45.28561" lon="0.30988">
        <ele>128</ele>
        <time>2025-04-11T12:11:02Z</time>
      </trkpt>
      <trkpt lat="45.28556" lon="0.31002">
        <ele>127</ele>
        <time>2025-04-11T12:11:04Z</time>
      </trkpt>
      <trkpt lat="45.28538" lon="0.3103">
        <ele>127</ele>
        <time>2025-04-11T12:11:09Z</time>
      </trkpt>
      <trkpt lat="45.28516" lon="0.31051">
        <ele>127</ele>
        <time>2025-04-11T12:11:14Z</time>
      </trkpt>
      <trkpt lat="45.2849" lon="0.31064">
        <ele>126</ele>
        <time>2025-04-11T12:11:19Z</time>
      </trkpt>
      <trkpt lat="45.28466" lon="0.31065">
        <ele>125</ele>
        <time>2025-04-11T12:11:23Z</time>
      </trkpt>
      <trkpt lat="45.28451" lon="0.31061">
        <ele>124</ele>
        <time>2025-04-11T12:11:26Z</time>
      </trkpt>
      <trkpt lat="45.28439" lon="0.31054">
        <ele>123</ele>
        <time>2025-04-11T12:11:28Z</time>
      </trkpt>
      <trkpt lat="45.28385" lon="0.31008">
        <ele>119</ele>
        <time>2025-04-11T12:11:39Z</time>
      </trkpt>
      <trkpt lat="45.28371" lon="0.30999">
        <ele>119</ele>
        <time>2025-04-11T12:11:42Z</time>
      </trkpt>
      <trkpt lat="45.28359" lon="0.30994">
        <ele>118</ele>
        <time>2025-04-11T12:11:44Z</time>
      </trkpt>
      <trkpt lat="45.28346" lon="0.30993">
        <ele>117</ele>
        <time>2025-04-11T12:11:46Z</time>
      </trkpt>
      <trkpt lat="45.28335" lon="0.30996">
        <ele>116</ele>
        <time>2025-04-11T12:11:48Z</time>
      </trkpt>
      <trkpt lat="45.28323" lon="0.31001">
        <ele>116</ele>
        <time>2025-04-11T12:11:51Z</time>
      </trkpt>
      <trkpt lat="45.28303" lon="0.31022">
        <ele>115</ele>
        <time>2025-04-11T12:11:55Z</time>
      </trkpt>
      <trkpt lat="45.2829" lon="0.31041">
        <ele>113</ele>
        <time>2025-04-11T12:11:58Z</time>
      </trkpt>
      <trkpt lat="45.2822" lon="0.31162">
        <ele>103</ele>
        <time>2025-04-11T12:12:18Z</time>
      </trkpt>
      <trkpt lat="45.28212" lon="0.31172">
        <ele>102</ele>
        <time>2025-04-11T12:12:20Z</time>
      </trkpt>
      <trkpt lat="45.28204" lon="0.31178">
        <ele>101</ele>
        <time>2025-04-11T12:12:22Z</time>
      </trkpt>
      <trkpt lat="45.28191" lon="0.31183">
        <ele>100</ele>
        <time>2025-04-11T12:12:24Z</time>
      </trkpt>
      <trkpt lat="45.28175" lon="0.31182">
        <ele>100</ele>
        <time>2025-04-11T12:12:27Z</time>
      </trkpt>
      <trkpt lat="45.28157" lon="0.31176">
        <ele>99</ele>
        <time>2025-04-11T12:12:30Z</time>
      </trkpt>
      <trkpt lat="45.28121" lon="0.31156">
        <ele>97</ele>
        <time>2025-04-11T12:12:37Z</time>
      </trkpt>
      <trkpt lat="45.2808" lon="0.31127">
        <ele>95</ele>
        <time>2025-04-11T12:12:45Z</time>
      </trkpt>
      <trkpt lat="45.28054" lon="0.31114">
        <ele>95</ele>
        <time>2025-04-11T12:12:50Z</time>
      </trkpt>
      <trkpt lat="45.28037" lon="0.31109">
        <ele>94</ele>
        <time>2025-04-11T12:12:53Z</time>
      </trkpt>
      <trkpt lat="45.28013" lon="0.31108">
        <ele>93</ele>
        <time>2025-04-11T12:12:57Z</time>
      </trkpt>
      <trkpt lat="45.2799" lon="0.3111">
        <ele>92</ele>
        <time>2025-04-11T12:13:01Z</time>
      </trkpt>
      <trkpt lat="45.27952" lon="0.31118">
        <ele>91</ele>
        <time>2025-04-11T12:13:08Z</time>
      </trkpt>
      <trkpt lat="45.27922" lon="0.31129">
        <ele>90</ele>
        <time>2025-04-11T12:13:14Z</time>
      </trkpt>
      <trkpt lat="45.2789" lon="0.31148">
        <ele>89</ele>
        <time>2025-04-11T12:13:20Z</time>
      </trkpt>
      <trkpt lat="45.27862" lon="0.31169">
        <ele>89</ele>
        <time>2025-04-11T12:13:26Z</time>
      </trkpt>
      <trkpt lat="45.27847" lon="0.31184">
        <ele>88</ele>
        <time>2025-04-11T12:13:29Z</time>
      </trkpt>
      <trkpt lat="45.27757" lon="0.31314">
        <ele>87</ele>
        <time>2025-04-11T12:13:52Z</time>
      </trkpt>
      <trkpt lat="45.27724" lon="0.31347">
        <ele>86</ele>
        <time>2025-04-11T12:13:59Z</time>
      </trkpt>
      <trkpt lat="45.27606" lon="0.31456">
        <ele>81</ele>
        <time>2025-04-11T12:14:24Z</time>
      </trkpt>
      <trkpt lat="45.27562" lon="0.31493">
        <ele>79</ele>
        <time>2025-04-11T12:14:33Z</time>
      </trkpt>
      <trkpt lat="45.27414" lon="0.31577">
        <ele>75</ele>
        <time>2025-04-11T12:15:01Z</time>
      </trkpt>
      <trkpt lat="45.27393" lon="0.31591">
        <ele>75</ele>
        <time>2025-04-11T12:15:06Z</time>
      </trkpt>
      <trkpt lat="45.26878" lon="0.31879">
        <ele>68</ele>
        <time>2025-04-11T12:16:44Z</time>
      </trkpt>
      <trkpt lat="45.26824" lon="0.31912">
        <ele>67</ele>
        <time>2025-04-11T12:16:54Z</time>
      </trkpt>
      <trkpt lat="45.26791" lon="0.31938">
        <ele>65</ele>
        <time>2025-04-11T12:17:01Z</time>
      </trkpt>
      <trkpt lat="45.26756" lon="0.31981">
        <ele>64</ele>
        <time>2025-04-11T12:17:09Z</time>
      </trkpt>
      <trkpt lat="45.26751" lon="0.3199">
        <ele>64</ele>
        <time>2025-04-11T12:17:11Z</time>
      </trkpt>
      <trkpt lat="45.26734" lon="0.32019">
        <ele>64</ele>
        <time>2025-04-11T12:17:16Z</time>
      </trkpt>
      <trkpt lat="45.26708" lon="0.32076">
        <ele>66</ele>
        <time>2025-04-11T12:17:24Z</time>
      </trkpt>
      <trkpt lat="45.26691" lon="0.32136">
        <ele>69</ele>
        <time>2025-04-11T12:17:32Z</time>
      </trkpt>
      <trkpt lat="45.26682" lon="0.3219">
        <ele>72</ele>
        <time>2025-04-11T12:17:39Z</time>
      </trkpt>
      <trkpt lat="45.26679" lon="0.32253">
        <ele>75</ele>
        <time>2025-04-11T12:17:47Z</time>
      </trkpt>
      <trkpt lat="45.26682" lon="0.32313">
        <ele>77</ele>
        <time>2025-04-11T12:17:55Z</time>
      </trkpt>
      <trkpt lat="45.26699" lon="0.32504">
        <ele>80</ele>
        <time>2025-04-11T12:18:19Z</time>
      </trkpt>
      <trkpt lat="45.26702" lon="0.32547">
        <ele>81</ele>
        <time>2025-04-11T12:18:24Z</time>
      </trkpt>
      <trkpt lat="45.26706" lon="0.32679">
        <ele>80</ele>
        <time>2025-04-11T12:18:41Z</time>
      </trkpt>
      <trkpt lat="45.26706" lon="0.32758">
        <ele>80</ele>
        <time>2025-04-11T12:18:51Z</time>
      </trkpt>
      <trkpt lat="45.26697" lon="0.32984">
        <ele>78</ele>
        <time>2025-04-11T12:19:19Z</time>
      </trkpt>
      <trkpt lat="45.26692" lon="0.33051">
        <ele>77</ele>
        <time>2025-04-11T12:19:27Z</time>
      </trkpt>
      <trkpt lat="45.26645" lon="0.33357">
        <ele>70</ele>
        <time>2025-04-11T12:20:07Z</time>
      </trkpt>
      <trkpt lat="45.26636" lon="0.3339">
        <ele>70</ele>
        <time>2025-04-11T12:20:11Z</time>
      </trkpt>
      <trkpt lat="45.26623" lon="0.33424">
        <ele>70</ele>
        <time>2025-04-11T12:20:16Z</time>
      </trkpt>
      <trkpt lat="45.26592" lon="0.33497">
        <ele>69</ele>
        <time>2025-04-11T12:20:26Z</time>
      </trkpt>
      <trkpt lat="45.26581" lon="0.33518">
        <ele>69</ele>
        <time>2025-04-11T12:20:30Z</time>
      </trkpt>
      <trkpt lat="45.26571" lon="0.33533">
        <ele>69</ele>
        <time>2025-04-11T12:20:32Z</time>
      </trkpt>
      <trkpt lat="45.26554" lon="0.33551">
        <ele>68</ele>
        <time>2025-04-11T12:20:36Z</time>
      </trkpt>
      <trkpt lat="45.26501" lon="0.33593">
        <ele>66</ele>
        <time>2025-04-11T12:20:47Z</time>
      </trkpt>
      <trkpt lat="45.26394" lon="0.33672">
        <ele>62</ele>
        <time>2025-04-11T12:21:08Z</time>
      </trkpt>
      <trkpt lat="45.26363" lon="0.337">
        <ele>61</ele>
        <time>2025-04-11T12:21:15Z</time>
      </trkpt>
      <trkpt lat="45.26323" lon="0.3374">
        <ele>61</ele>
        <time>2025-04-11T12:21:24Z</time>
      </trkpt>
      <trkpt lat="45.26292" lon="0.33777">
        <ele>62</ele>
        <time>2025-04-11T12:21:31Z</time>
      </trkpt>
      <trkpt lat="45.26263" lon="0.33818">
        <ele>61</ele>
        <time>2025-04-11T12:21:38Z</time>
      </trkpt>
      <trkpt lat="45.26233" lon="0.33868">
        <ele>61</ele>
        <time>2025-04-11T12:21:46Z</time>
      </trkpt>
      <trkpt lat="45.26214" lon="0.33904">
        <ele>60</ele>
        <time>2025-04-11T12:21:52Z</time>
      </trkpt>
      <trkpt lat="45.26197" lon="0.33942">
        <ele>59</ele>
        <time>2025-04-11T12:21:58Z</time>
      </trkpt>
      <trkpt lat="45.26172" lon="0.34007">
        <ele>58</ele>
        <time>2025-04-11T12:22:07Z</time>
      </trkpt>
      <trkpt lat="45.26153" lon="0.34067">
        <ele>59</ele>
        <time>2025-04-11T12:22:15Z</time>
      </trkpt>
      <trkpt lat="45.26135" lon="0.34146">
        <ele>60</ele>
        <time>2025-04-11T12:22:26Z</time>
      </trkpt>
      <trkpt lat="45.26126" lon="0.34204">
        <ele>61</ele>
        <time>2025-04-11T12:22:33Z</time>
      </trkpt>
      <trkpt lat="45.26124" lon="0.34246">
        <ele>61</ele>
        <time>2025-04-11T12:22:38Z</time>
      </trkpt>
      <trkpt lat="45.2612" lon="0.34278">
        <ele>61</ele>
        <time>2025-04-11T12:22:42Z</time>
      </trkpt>
      <trkpt lat="45.26115" lon="0.34285">
        <ele>61</ele>
        <time>2025-04-11T12:22:44Z</time>
      </trkpt>
      <trkpt lat="45.26101" lon="0.34287">
        <ele>61</ele>
        <time>2025-04-11T12:22:46Z</time>
      </trkpt>
      <trkpt lat="45.26056" lon="0.34284">
        <ele>61</ele>
        <time>2025-04-11T12:22:54Z</time>
      </trkpt>
      <trkpt lat="45.25963" lon="0.34288">
        <ele>61</ele>
        <time>2025-04-11T12:23:11Z</time>
      </trkpt>
      <trkpt lat="45.25925" lon="0.34288">
        <ele>61</ele>
        <time>2025-04-11T12:23:17Z</time>
      </trkpt>
      <trkpt lat="45.25797" lon="0.3429">
        <ele>63</ele>
        <time>2025-04-11T12:23:40Z</time>
      </trkpt>
      <trkpt lat="45.25768" lon="0.34291">
        <ele>62</ele>
        <time>2025-04-11T12:23:45Z</time>
      </trkpt>
      <trkpt lat="45.25715" lon="0.34292">
        <ele>62</ele>
        <time>2025-04-11T12:23:55Z</time>
      </trkpt>
      <trkpt lat="45.25693" lon="0.3429">
        <ele>61</ele>
        <time>2025-04-11T12:23:59Z</time>
      </trkpt>
      <trkpt lat="45.25678" lon="0.34286">
        <ele>61</ele>
        <time>2025-04-11T12:24:01Z</time>
      </trkpt>
      <trkpt lat="45.2566" lon="0.34276">
        <ele>61</ele>
        <time>2025-04-11T12:24:05Z</time>
      </trkpt>
      <trkpt lat="45.25619" lon="0.34246">
        <ele>63</ele>
        <time>2025-04-11T12:24:13Z</time>
      </trkpt>
      <trkpt lat="45.25505" lon="0.34162">
        <ele>65</ele>
        <time>2025-04-11T12:24:36Z</time>
      </trkpt>
      <trkpt lat="45.25472" lon="0.34135">
        <ele>67</ele>
        <time>2025-04-11T12:24:43Z</time>
      </trkpt>
      <trkpt lat="45.25462" lon="0.34115">
        <ele>67</ele>
        <time>2025-04-11T12:24:46Z</time>
      </trkpt>
      <trkpt lat="45.25463" lon="0.34104">
        <ele>67</ele>
        <time>2025-04-11T12:24:47Z</time>
      </trkpt>
      <trkpt lat="45.25462" lon="0.34099">
        <ele>67</ele>
        <time>2025-04-11T12:24:48Z</time>
      </trkpt>
      <trkpt lat="45.25455" lon="0.34092">
        <ele>67</ele>
        <time>2025-04-11T12:24:49Z</time>
      </trkpt>
      <trkpt lat="45.25452" lon="0.34092">
        <ele>67</ele>
        <time>2025-04-11T12:24:50Z</time>
      </trkpt>
      <trkpt lat="45.25446" lon="0.34095">
        <ele>68</ele>
        <time>2025-04-11T12:24:51Z</time>
      </trkpt>
      <trkpt lat="45.25437" lon="0.34096">
        <ele>68</ele>
        <time>2025-04-11T12:24:53Z</time>
      </trkpt>
      <trkpt lat="45.25429" lon="0.34096">
        <ele>69</ele>
        <time>2025-04-11T12:24:54Z</time>
      </trkpt>
      <trkpt lat="45.25443" lon="0.34102">
        <ele>68</ele>
        <time>2025-04-11T12:24:57Z</time>
      </trkpt>
      <trkpt lat="45.25442" lon="0.34109">
        <ele>68</ele>
        <time>2025-04-11T12:24:57Z</time>
      </trkpt>
      <trkpt lat="45.25444" lon="0.34115">
        <ele>68</ele>
        <time>2025-04-11T12:24:58Z</time>
      </trkpt>
      <trkpt lat="45.2545" lon="0.34121">
        <ele>68</ele>
        <time>2025-04-11T12:25:00Z</time>
      </trkpt>
      <trkpt lat="45.25456" lon="0.34121">
        <ele>67</ele>
        <time>2025-04-11T12:25:01Z</time>
      </trkpt>
      <trkpt lat="45.25462" lon="0.34115">
        <ele>67</ele>
        <time>2025-04-11T12:25:02Z</time>
      </trkpt>
      <trkpt lat="45.25463" lon="0.34104">
        <ele>67</ele>
        <time>2025-04-11T12:25:03Z</time>
      </trkpt>
      <trkpt lat="45.25462" lon="0.34099">
        <ele>67</ele>
        <time>2025-04-11T12:25:04Z</time>
      </trkpt>
      <trkpt lat="45.25469" lon="0.34083">
        <ele>66</ele>
        <time>2025-04-11T12:25:06Z</time>
      </trkpt>
      <trkpt lat="45.25484" lon="0.34069">
        <ele>66</ele>
        <time>2025-04-11T12:25:10Z</time>
      </trkpt>
      <trkpt lat="45.25494" lon="0.34054">
        <ele>65</ele>
        <time>2025-04-11T12:25:12Z</time>
      </trkpt>
      <trkpt lat="45.255" lon="0.34039">
        <ele>64</ele>
        <time>2025-04-11T12:25:14Z</time>
      </trkpt>
      <trkpt lat="45.25513" lon="0.33978">
        <ele>64</ele>
        <time>2025-04-11T12:25:22Z</time>
      </trkpt>
      <trkpt lat="45.25514" lon="0.33974">
        <ele>64</ele>
        <time>2025-04-11T12:25:23Z</time>
      </trkpt>
      <trkpt lat="45.25547" lon="0.33806">
        <ele>67</ele>
        <time>2025-04-11T12:25:45Z</time>
      </trkpt>
      <trkpt lat="45.25549" lon="0.33787">
        <ele>67</ele>
        <time>2025-04-11T12:25:47Z</time>
      </trkpt>
      <trkpt lat="45.2555" lon="0.33766">
        <ele>68</ele>
        <time>2025-04-11T12:25:50Z</time>
      </trkpt>
      <trkpt lat="45.25541" lon="0.33708">
        <ele>69</ele>
        <time>2025-04-11T12:25:57Z</time>
      </trkpt>
      <trkpt lat="45.25539" lon="0.33679">
        <ele>69</ele>
        <time>2025-04-11T12:26:01Z</time>
      </trkpt>
      <trkpt lat="45.25536" lon="0.33672">
        <ele>70</ele>
        <time>2025-04-11T12:26:02Z</time>
      </trkpt>
      <trkpt lat="45.2553" lon="0.33667">
        <ele>70</ele>
        <time>2025-04-11T12:26:03Z</time>
      </trkpt>
      <trkpt lat="45.25342" lon="0.33634">
        <ele>71</ele>
        <time>2025-04-11T12:26:37Z</time>
      </trkpt>
      <trkpt lat="45.25076" lon="0.33593">
        <ele>72</ele>
        <time>2025-04-11T12:27:24Z</time>
      </trkpt>
      <trkpt lat="45.25073" lon="0.33623">
        <ele>71</ele>
        <time>2025-04-11T12:27:28Z</time>
      </trkpt>
      <trkpt lat="45.25077" lon="0.33681">
        <ele>70</ele>
        <time>2025-04-11T12:27:35Z</time>
      </trkpt>
      <trkpt lat="45.24984" lon="0.337">
        <ele>72</ele>
        <time>2025-04-11T12:27:52Z</time>
      </trkpt>
      <trkpt lat="45.24969" lon="0.33703">
        <ele>72</ele>
        <time>2025-04-11T12:27:55Z</time>
      </trkpt>
    </trkseg>
  </trk>
</gpx>